<?xml version="1.0" encoding="UTF-8"?>
<gpx version="1.1" creator="https://www.youtrack.es" xsi:schemaLocation="http://www.topografix.com/GPX/1/1 http://www.topografix.com/GPX/1/1/gpx.xsd http://www.garmin.com/xmlschemas/GpxExtensions/v3 http://www.garmin.com/xmlschemas/GpxExtensionsv3.xsd http://www.garmin.com/xmlschemas/TrackPointExtension/v1 http://www.garmin.com/xmlschemas/TrackPointExtensionv1.xsd" xmlns:gpxtpx="http://www.garmin.com/xmlschemas/TrackPointExtension/v1" xmlns:gpxx="http://www.garmin.com/xmlschemas/GpxExtensions/v3" xmlns:xsi="http://www.w3.org/2001/XMLSchema-instance">
  <metadata>
    <link href="https://www.youtrack.es">
      <text>YouTrack.es</text>
    </link>
    <time>2026-05-09T01:14:20Z</time>
  </metadata>
  <trk>
    <src>https://www.youtrack.es</src>
    <link href="https://www.youtrack.es/ruta/5506-garrigues-bike-provisional">
      <text>YouTrack.es</text>
    </link>
    <trkseg>
      <trkpt lat="41.495371" lon="0.764792">
        <ele>346.099</ele>
        <time>2019-04-28T22:20:00Z</time>
      </trkpt>
      <trkpt lat="41.495293" lon="0.765497">
        <ele>348.607</ele>
        <time>2019-04-28T22:20:20Z</time>
      </trkpt>
      <trkpt lat="41.494913" lon="0.765411">
        <ele>350.427</ele>
        <time>2019-04-28T22:20:40Z</time>
      </trkpt>
      <trkpt lat="41.493981" lon="0.765175">
        <ele>354.008</ele>
        <time>2019-04-28T22:21:00Z</time>
      </trkpt>
      <trkpt lat="41.493471" lon="0.765240">
        <ele>355.982</ele>
        <time>2019-04-28T22:21:20Z</time>
      </trkpt>
      <trkpt lat="41.493001" lon="0.765347">
        <ele>356.614</ele>
        <time>2019-04-28T22:21:40Z</time>
      </trkpt>
      <trkpt lat="41.492575" lon="0.765283">
        <ele>359.567</ele>
        <time>2019-04-28T22:22:00Z</time>
      </trkpt>
      <trkpt lat="41.491900" lon="0.764714">
        <ele>366.460</ele>
        <time>2019-04-28T22:22:20Z</time>
      </trkpt>
      <trkpt lat="41.490915" lon="0.763958">
        <ele>377.625</ele>
        <time>2019-04-28T22:22:40Z</time>
      </trkpt>
      <trkpt lat="41.490622" lon="0.763780">
        <ele>383.686</ele>
        <time>2019-04-28T22:23:00Z</time>
      </trkpt>
      <trkpt lat="41.489802" lon="0.763228">
        <ele>383.026</ele>
        <time>2019-04-28T22:23:20Z</time>
      </trkpt>
      <trkpt lat="41.489095" lon="0.763180">
        <ele>377.013</ele>
        <time>2019-04-28T22:23:40Z</time>
      </trkpt>
      <trkpt lat="41.488159" lon="0.763013">
        <ele>373.382</ele>
        <time>2019-04-28T22:24:00Z</time>
      </trkpt>
      <trkpt lat="41.487881" lon="0.762922">
        <ele>373.343</ele>
        <time>2019-04-28T22:24:20Z</time>
      </trkpt>
      <trkpt lat="41.487070" lon="0.762697">
        <ele>375.417</ele>
        <time>2019-04-28T22:24:40Z</time>
      </trkpt>
      <trkpt lat="41.486877" lon="0.762729">
        <ele>374.908</ele>
        <time>2019-04-28T22:25:00Z</time>
      </trkpt>
      <trkpt lat="41.486515" lon="0.762772">
        <ele>371.381</ele>
        <time>2019-04-28T22:25:20Z</time>
      </trkpt>
      <trkpt lat="41.485458" lon="0.762713">
        <ele>366.913</ele>
        <time>2019-04-28T22:25:40Z</time>
      </trkpt>
      <trkpt lat="41.484839" lon="0.762498">
        <ele>365.646</ele>
        <time>2019-04-28T22:26:00Z</time>
      </trkpt>
      <trkpt lat="41.484140" lon="0.762177">
        <ele>366.999</ele>
        <time>2019-04-28T22:26:20Z</time>
      </trkpt>
      <trkpt lat="41.483690" lon="0.762101">
        <ele>368.744</ele>
        <time>2019-04-28T22:26:40Z</time>
      </trkpt>
      <trkpt lat="41.483369" lon="0.762134">
        <ele>369.965</ele>
        <time>2019-04-28T22:27:00Z</time>
      </trkpt>
      <trkpt lat="41.481721" lon="0.761865">
        <ele>381.845</ele>
        <time>2019-04-28T22:27:20Z</time>
      </trkpt>
      <trkpt lat="41.481351" lon="0.761651">
        <ele>388.572</ele>
        <time>2019-04-28T22:27:40Z</time>
      </trkpt>
      <trkpt lat="41.480877" lon="0.761737">
        <ele>400.856</ele>
        <time>2019-04-28T22:28:00Z</time>
      </trkpt>
      <trkpt lat="41.480515" lon="0.761951">
        <ele>402.859</ele>
        <time>2019-04-28T22:28:20Z</time>
      </trkpt>
      <trkpt lat="41.480274" lon="0.762026">
        <ele>406.314</ele>
        <time>2019-04-28T22:28:40Z</time>
      </trkpt>
      <trkpt lat="41.480001" lon="0.761919">
        <ele>412.208</ele>
        <time>2019-04-28T22:29:00Z</time>
      </trkpt>
      <trkpt lat="41.479800" lon="0.761769">
        <ele>413.718</ele>
        <time>2019-04-28T22:29:20Z</time>
      </trkpt>
      <trkpt lat="41.479615" lon="0.761404">
        <ele>416.940</ele>
        <time>2019-04-28T22:29:40Z</time>
      </trkpt>
      <trkpt lat="41.479494" lon="0.761093">
        <ele>418.053</ele>
        <time>2019-04-28T22:30:00Z</time>
      </trkpt>
      <trkpt lat="41.479165" lon="0.760396">
        <ele>417.486</ele>
        <time>2019-04-28T22:30:20Z</time>
      </trkpt>
      <trkpt lat="41.478715" lon="0.760117">
        <ele>417.671</ele>
        <time>2019-04-28T22:30:40Z</time>
      </trkpt>
      <trkpt lat="41.478200" lon="0.760181">
        <ele>416.532</ele>
        <time>2019-04-28T22:31:00Z</time>
      </trkpt>
      <trkpt lat="41.477766" lon="0.760396">
        <ele>415.512</ele>
        <time>2019-04-28T22:31:20Z</time>
      </trkpt>
      <trkpt lat="41.476384" lon="0.759838">
        <ele>419.839</ele>
        <time>2019-04-28T22:31:40Z</time>
      </trkpt>
      <trkpt lat="41.475861" lon="0.760095">
        <ele>420.287</ele>
        <time>2019-04-28T22:32:00Z</time>
      </trkpt>
      <trkpt lat="41.475757" lon="0.760192">
        <ele>420.842</ele>
        <time>2019-04-28T22:32:20Z</time>
      </trkpt>
      <trkpt lat="41.475507" lon="0.760106">
        <ele>418.726</ele>
        <time>2019-04-28T22:32:40Z</time>
      </trkpt>
      <trkpt lat="41.475130" lon="0.760503">
        <ele>421.508</ele>
        <time>2019-04-28T22:33:00Z</time>
      </trkpt>
      <trkpt lat="41.474575" lon="0.760288">
        <ele>413.551</ele>
        <time>2019-04-28T22:33:20Z</time>
      </trkpt>
      <trkpt lat="41.474350" lon="0.759838">
        <ele>410.053</ele>
        <time>2019-04-28T22:33:40Z</time>
      </trkpt>
      <trkpt lat="41.473908" lon="0.759494">
        <ele>410.126</ele>
        <time>2019-04-28T22:34:00Z</time>
      </trkpt>
      <trkpt lat="41.473715" lon="0.759269">
        <ele>407.589</ele>
        <time>2019-04-28T22:34:20Z</time>
      </trkpt>
      <trkpt lat="41.473562" lon="0.758958">
        <ele>406.974</ele>
        <time>2019-04-28T22:34:40Z</time>
      </trkpt>
      <trkpt lat="41.472855" lon="0.758303">
        <ele>396.045</ele>
        <time>2019-04-28T22:35:00Z</time>
      </trkpt>
      <trkpt lat="41.472750" lon="0.758250">
        <ele>395.055</ele>
        <time>2019-04-28T22:35:20Z</time>
      </trkpt>
      <trkpt lat="41.472557" lon="0.758196">
        <ele>394.442</ele>
        <time>2019-04-28T22:35:40Z</time>
      </trkpt>
      <trkpt lat="41.472188" lon="0.758228">
        <ele>387.078</ele>
        <time>2019-04-28T22:36:00Z</time>
      </trkpt>
      <trkpt lat="41.471601" lon="0.758024">
        <ele>379.833</ele>
        <time>2019-04-28T22:36:20Z</time>
      </trkpt>
      <trkpt lat="41.471054" lon="0.757853">
        <ele>378.526</ele>
        <time>2019-04-28T22:36:40Z</time>
      </trkpt>
      <trkpt lat="41.470853" lon="0.757767">
        <ele>378.008</ele>
        <time>2019-04-28T22:37:00Z</time>
      </trkpt>
      <trkpt lat="41.470202" lon="0.757059">
        <ele>380.490</ele>
        <time>2019-04-28T22:37:20Z</time>
      </trkpt>
      <trkpt lat="41.469326" lon="0.756319">
        <ele>389.822</ele>
        <time>2019-04-28T22:37:40Z</time>
      </trkpt>
      <trkpt lat="41.468136" lon="0.756565">
        <ele>396.845</ele>
        <time>2019-04-28T22:38:00Z</time>
      </trkpt>
      <trkpt lat="41.467782" lon="0.756544">
        <ele>398.438</ele>
        <time>2019-04-28T22:38:20Z</time>
      </trkpt>
      <trkpt lat="41.467203" lon="0.756211">
        <ele>401.753</ele>
        <time>2019-04-28T22:38:40Z</time>
      </trkpt>
      <trkpt lat="41.466447" lon="0.755728">
        <ele>406.524</ele>
        <time>2019-04-28T22:39:00Z</time>
      </trkpt>
      <trkpt lat="41.465499" lon="0.755310">
        <ele>417.084</ele>
        <time>2019-04-28T22:39:20Z</time>
      </trkpt>
      <trkpt lat="41.464028" lon="0.754784">
        <ele>424.931</ele>
        <time>2019-04-28T22:39:40Z</time>
      </trkpt>
      <trkpt lat="41.464100" lon="0.754420">
        <ele>425.788</ele>
        <time>2019-04-28T22:40:00Z</time>
      </trkpt>
      <trkpt lat="41.464655" lon="0.753829">
        <ele>425.424</ele>
        <time>2019-04-28T22:40:20Z</time>
      </trkpt>
      <trkpt lat="41.465185" lon="0.752778">
        <ele>422.726</ele>
        <time>2019-04-28T22:40:40Z</time>
      </trkpt>
      <trkpt lat="41.465796" lon="0.751888">
        <ele>422.708</ele>
        <time>2019-04-28T22:41:00Z</time>
      </trkpt>
      <trkpt lat="41.465772" lon="0.751480">
        <ele>422.551</ele>
        <time>2019-04-28T22:41:20Z</time>
      </trkpt>
      <trkpt lat="41.465877" lon="0.750922">
        <ele>422.313</ele>
        <time>2019-04-28T22:41:40Z</time>
      </trkpt>
      <trkpt lat="41.465740" lon="0.750321">
        <ele>419.866</ele>
        <time>2019-04-28T22:42:00Z</time>
      </trkpt>
      <trkpt lat="41.465772" lon="0.749881">
        <ele>418.079</ele>
        <time>2019-04-28T22:42:20Z</time>
      </trkpt>
      <trkpt lat="41.465394" lon="0.748250">
        <ele>411.474</ele>
        <time>2019-04-28T22:42:40Z</time>
      </trkpt>
      <trkpt lat="41.465523" lon="0.747864">
        <ele>408.645</ele>
        <time>2019-04-28T22:43:00Z</time>
      </trkpt>
      <trkpt lat="41.465418" lon="0.747521">
        <ele>407.165</ele>
        <time>2019-04-28T22:43:20Z</time>
      </trkpt>
      <trkpt lat="41.465394" lon="0.745375">
        <ele>400.842</ele>
        <time>2019-04-28T22:43:40Z</time>
      </trkpt>
      <trkpt lat="41.465410" lon="0.744925">
        <ele>401.699</ele>
        <time>2019-04-28T22:44:00Z</time>
      </trkpt>
      <trkpt lat="41.465242" lon="0.744345">
        <ele>402.107</ele>
        <time>2019-04-28T22:44:20Z</time>
      </trkpt>
      <trkpt lat="41.465378" lon="0.743680">
        <ele>400.127</ele>
        <time>2019-04-28T22:44:40Z</time>
      </trkpt>
      <trkpt lat="41.464928" lon="0.743691">
        <ele>399.208</ele>
        <time>2019-04-28T22:45:00Z</time>
      </trkpt>
      <trkpt lat="41.464566" lon="0.743283">
        <ele>398.662</ele>
        <time>2019-04-28T22:45:20Z</time>
      </trkpt>
      <trkpt lat="41.464502" lon="0.742961">
        <ele>398.614</ele>
        <time>2019-04-28T22:45:40Z</time>
      </trkpt>
      <trkpt lat="41.464526" lon="0.742553">
        <ele>399.797</ele>
        <time>2019-04-28T22:46:00Z</time>
      </trkpt>
      <trkpt lat="41.464003" lon="0.741942">
        <ele>396.730</ele>
        <time>2019-04-28T22:46:20Z</time>
      </trkpt>
      <trkpt lat="41.463762" lon="0.741438">
        <ele>395.045</ele>
        <time>2019-04-28T22:46:40Z</time>
      </trkpt>
      <trkpt lat="41.463601" lon="0.741287">
        <ele>394.736</ele>
        <time>2019-04-28T22:47:00Z</time>
      </trkpt>
      <trkpt lat="41.463465" lon="0.740236">
        <ele>395.516</ele>
        <time>2019-04-28T22:47:20Z</time>
      </trkpt>
      <trkpt lat="41.463023" lon="0.739582">
        <ele>393.273</ele>
        <time>2019-04-28T22:47:40Z</time>
      </trkpt>
      <trkpt lat="41.462805" lon="0.739367">
        <ele>390.958</ele>
        <time>2019-04-28T22:48:00Z</time>
      </trkpt>
      <trkpt lat="41.462822" lon="0.739152">
        <ele>390.352</ele>
        <time>2019-04-28T22:48:20Z</time>
      </trkpt>
      <trkpt lat="41.462902" lon="0.738755">
        <ele>390.717</ele>
        <time>2019-04-28T22:48:40Z</time>
      </trkpt>
      <trkpt lat="41.462830" lon="0.738541">
        <ele>390.208</ele>
        <time>2019-04-28T22:49:00Z</time>
      </trkpt>
      <trkpt lat="41.462572" lon="0.738348">
        <ele>389.918</ele>
        <time>2019-04-28T22:49:20Z</time>
      </trkpt>
      <trkpt lat="41.462339" lon="0.738198">
        <ele>388.520</ele>
        <time>2019-04-28T22:49:40Z</time>
      </trkpt>
      <trkpt lat="41.462243" lon="0.738112">
        <ele>387.893</ele>
        <time>2019-04-28T22:50:00Z</time>
      </trkpt>
      <trkpt lat="41.462170" lon="0.737618">
        <ele>388.636</ele>
        <time>2019-04-28T22:50:20Z</time>
      </trkpt>
      <trkpt lat="41.462243" lon="0.737103">
        <ele>388.241</ele>
        <time>2019-04-28T22:50:40Z</time>
      </trkpt>
      <trkpt lat="41.462331" lon="0.736170">
        <ele>386.192</ele>
        <time>2019-04-28T22:51:00Z</time>
      </trkpt>
      <trkpt lat="41.462379" lon="0.735537">
        <ele>384.982</ele>
        <time>2019-04-28T22:51:20Z</time>
      </trkpt>
      <trkpt lat="41.462146" lon="0.735161">
        <ele>383.299</ele>
        <time>2019-04-28T22:51:40Z</time>
      </trkpt>
      <trkpt lat="41.462034" lon="0.734711">
        <ele>382.672</ele>
        <time>2019-04-28T22:52:00Z</time>
      </trkpt>
      <trkpt lat="41.461808" lon="0.734121">
        <ele>381.413</ele>
        <time>2019-04-28T22:52:20Z</time>
      </trkpt>
      <trkpt lat="41.461817" lon="0.733906">
        <ele>381.014</ele>
        <time>2019-04-28T22:52:40Z</time>
      </trkpt>
      <trkpt lat="41.461776" lon="0.733445">
        <ele>379.008</ele>
        <time>2019-04-28T22:53:00Z</time>
      </trkpt>
      <trkpt lat="41.461873" lon="0.733273">
        <ele>378.370</ele>
        <time>2019-04-28T22:53:20Z</time>
      </trkpt>
      <trkpt lat="41.461511" lon="0.732318">
        <ele>373.212</ele>
        <time>2019-04-28T22:53:40Z</time>
      </trkpt>
      <trkpt lat="41.461382" lon="0.732286">
        <ele>372.745</ele>
        <time>2019-04-28T22:54:00Z</time>
      </trkpt>
      <trkpt lat="41.461157" lon="0.731771">
        <ele>369.048</ele>
        <time>2019-04-28T22:54:20Z</time>
      </trkpt>
      <trkpt lat="41.460747" lon="0.732801">
        <ele>368.943</ele>
        <time>2019-04-28T22:54:40Z</time>
      </trkpt>
      <trkpt lat="41.459903" lon="0.733144">
        <ele>359.224</ele>
        <time>2019-04-28T22:55:00Z</time>
      </trkpt>
      <trkpt lat="41.459517" lon="0.733026">
        <ele>357.394</ele>
        <time>2019-04-28T22:55:20Z</time>
      </trkpt>
      <trkpt lat="41.459790" lon="0.733531">
        <ele>354.751</ele>
        <time>2019-04-28T22:55:40Z</time>
      </trkpt>
      <trkpt lat="41.459887" lon="0.734110">
        <ele>353.416</ele>
        <time>2019-04-28T22:56:00Z</time>
      </trkpt>
      <trkpt lat="41.459678" lon="0.734475">
        <ele>347.676</ele>
        <time>2019-04-28T22:56:20Z</time>
      </trkpt>
      <trkpt lat="41.459662" lon="0.734571">
        <ele>347.613</ele>
        <time>2019-04-28T22:56:40Z</time>
      </trkpt>
      <trkpt lat="41.459814" lon="0.734786">
        <ele>350.308</ele>
        <time>2019-04-28T22:57:00Z</time>
      </trkpt>
      <trkpt lat="41.459935" lon="0.734968">
        <ele>350.664</ele>
        <time>2019-04-28T22:57:20Z</time>
      </trkpt>
      <trkpt lat="41.459983" lon="0.735193">
        <ele>349.466</ele>
        <time>2019-04-28T22:57:40Z</time>
      </trkpt>
      <trkpt lat="41.459999" lon="0.735548">
        <ele>350.069</ele>
        <time>2019-04-28T22:58:00Z</time>
      </trkpt>
      <trkpt lat="41.459847" lon="0.735741">
        <ele>349.722</ele>
        <time>2019-04-28T22:58:20Z</time>
      </trkpt>
      <trkpt lat="41.459605" lon="0.735977">
        <ele>347.757</ele>
        <time>2019-04-28T22:58:40Z</time>
      </trkpt>
      <trkpt lat="41.459372" lon="0.736095">
        <ele>344.288</ele>
        <time>2019-04-28T22:59:00Z</time>
      </trkpt>
      <trkpt lat="41.458584" lon="0.735558">
        <ele>333.598</ele>
        <time>2019-04-28T22:59:20Z</time>
      </trkpt>
      <trkpt lat="41.458110" lon="0.735880">
        <ele>329.525</ele>
        <time>2019-04-28T22:59:40Z</time>
      </trkpt>
      <trkpt lat="41.457668" lon="0.737361">
        <ele>327.329</ele>
        <time>2019-04-28T23:00:00Z</time>
      </trkpt>
      <trkpt lat="41.457732" lon="0.737822">
        <ele>328.700</ele>
        <time>2019-04-28T23:00:20Z</time>
      </trkpt>
      <trkpt lat="41.457893" lon="0.738080">
        <ele>332.520</ele>
        <time>2019-04-28T23:00:40Z</time>
      </trkpt>
      <trkpt lat="41.457764" lon="0.738262">
        <ele>332.308</ele>
        <time>2019-04-28T23:01:00Z</time>
      </trkpt>
      <trkpt lat="41.457515" lon="0.738219">
        <ele>328.985</ele>
        <time>2019-04-28T23:01:20Z</time>
      </trkpt>
      <trkpt lat="41.457193" lon="0.738080">
        <ele>326.417</ele>
        <time>2019-04-28T23:01:40Z</time>
      </trkpt>
      <trkpt lat="41.456695" lon="0.737607">
        <ele>320.580</ele>
        <time>2019-04-28T23:02:00Z</time>
      </trkpt>
      <trkpt lat="41.456405" lon="0.737350">
        <ele>315.453</ele>
        <time>2019-04-28T23:02:20Z</time>
      </trkpt>
      <trkpt lat="41.456309" lon="0.737135">
        <ele>311.568</ele>
        <time>2019-04-28T23:02:40Z</time>
      </trkpt>
      <trkpt lat="41.455778" lon="0.736942">
        <ele>309.669</ele>
        <time>2019-04-28T23:03:00Z</time>
      </trkpt>
      <trkpt lat="41.455159" lon="0.737060">
        <ele>305.729</ele>
        <time>2019-04-28T23:03:20Z</time>
      </trkpt>
      <trkpt lat="41.454588" lon="0.737704">
        <ele>304.446</ele>
        <time>2019-04-28T23:03:40Z</time>
      </trkpt>
      <trkpt lat="41.454307" lon="0.737672">
        <ele>300.693</ele>
        <time>2019-04-28T23:04:00Z</time>
      </trkpt>
      <trkpt lat="41.455657" lon="0.735387">
        <ele>298.165</ele>
        <time>2019-04-28T23:04:20Z</time>
      </trkpt>
      <trkpt lat="41.455947" lon="0.734560">
        <ele>300.121</ele>
        <time>2019-04-28T23:04:40Z</time>
      </trkpt>
      <trkpt lat="41.455810" lon="0.731578">
        <ele>295.308</ele>
        <time>2019-04-28T23:05:00Z</time>
      </trkpt>
      <trkpt lat="41.455641" lon="0.729818">
        <ele>296.152</ele>
        <time>2019-04-28T23:05:20Z</time>
      </trkpt>
      <trkpt lat="41.455617" lon="0.729260">
        <ele>296.724</ele>
        <time>2019-04-28T23:05:40Z</time>
      </trkpt>
      <trkpt lat="41.455770" lon="0.727190">
        <ele>295.417</ele>
        <time>2019-04-28T23:06:00Z</time>
      </trkpt>
      <trkpt lat="41.455473" lon="0.727544">
        <ele>290.250</ele>
        <time>2019-04-28T23:06:20Z</time>
      </trkpt>
      <trkpt lat="41.455215" lon="0.727962">
        <ele>287.865</ele>
        <time>2019-04-28T23:06:40Z</time>
      </trkpt>
      <trkpt lat="41.454934" lon="0.727834">
        <ele>290.066</ele>
        <time>2019-04-28T23:07:00Z</time>
      </trkpt>
      <trkpt lat="41.454604" lon="0.728960">
        <ele>297.426</ele>
        <time>2019-04-28T23:07:20Z</time>
      </trkpt>
      <trkpt lat="41.454548" lon="0.729614">
        <ele>298.293</ele>
        <time>2019-04-28T23:07:40Z</time>
      </trkpt>
      <trkpt lat="41.454628" lon="0.730140">
        <ele>295.925</ele>
        <time>2019-04-28T23:08:00Z</time>
      </trkpt>
      <trkpt lat="41.454676" lon="0.730762">
        <ele>294.726</ele>
        <time>2019-04-28T23:08:20Z</time>
      </trkpt>
      <trkpt lat="41.454733" lon="0.730956">
        <ele>292.908</ele>
        <time>2019-04-28T23:08:40Z</time>
      </trkpt>
      <trkpt lat="41.454725" lon="0.731009">
        <ele>293.008</ele>
        <time>2019-04-28T23:09:00Z</time>
      </trkpt>
      <trkpt lat="41.454670" lon="0.731157">
        <ele>294.145</ele>
        <time>2019-04-28T23:09:20Z</time>
      </trkpt>
      <trkpt lat="41.454610" lon="0.731232">
        <ele>295.377</ele>
        <time>2019-04-28T23:09:40Z</time>
      </trkpt>
      <trkpt lat="41.454540" lon="0.731385">
        <ele>296.690</ele>
        <time>2019-04-28T23:10:00Z</time>
      </trkpt>
      <trkpt lat="41.454532" lon="0.731487">
        <ele>297.623</ele>
        <time>2019-04-28T23:10:20Z</time>
      </trkpt>
      <trkpt lat="41.454644" lon="0.731500">
        <ele>296.238</ele>
        <time>2019-04-28T23:10:40Z</time>
      </trkpt>
      <trkpt lat="41.454775" lon="0.731524">
        <ele>294.959</ele>
        <time>2019-04-28T23:11:00Z</time>
      </trkpt>
      <trkpt lat="41.454849" lon="0.731602">
        <ele>294.729</ele>
        <time>2019-04-28T23:11:20Z</time>
      </trkpt>
      <trkpt lat="41.454936" lon="0.731811">
        <ele>296.296</ele>
        <time>2019-04-28T23:11:40Z</time>
      </trkpt>
      <trkpt lat="41.454984" lon="0.732004">
        <ele>298.261</ele>
        <time>2019-04-28T23:12:00Z</time>
      </trkpt>
      <trkpt lat="41.455141" lon="0.732597">
        <ele>301.821</ele>
        <time>2019-04-28T23:12:20Z</time>
      </trkpt>
      <trkpt lat="41.455183" lon="0.732820">
        <ele>303.313</ele>
        <time>2019-04-28T23:12:40Z</time>
      </trkpt>
      <trkpt lat="41.455191" lon="0.733024">
        <ele>305.408</ele>
        <time>2019-04-28T23:13:00Z</time>
      </trkpt>
      <trkpt lat="41.455223" lon="0.733305">
        <ele>304.289</ele>
        <time>2019-04-28T23:13:20Z</time>
      </trkpt>
      <trkpt lat="41.455197" lon="0.733544">
        <ele>303.961</ele>
        <time>2019-04-28T23:13:40Z</time>
      </trkpt>
      <trkpt lat="41.455151" lon="0.733831">
        <ele>304.894</ele>
        <time>2019-04-28T23:14:00Z</time>
      </trkpt>
      <trkpt lat="41.455107" lon="0.734161">
        <ele>306.457</ele>
        <time>2019-04-28T23:14:20Z</time>
      </trkpt>
      <trkpt lat="41.455068" lon="0.734298">
        <ele>306.892</ele>
        <time>2019-04-28T23:14:40Z</time>
      </trkpt>
      <trkpt lat="41.454948" lon="0.734542">
        <ele>308.363</ele>
        <time>2019-04-28T23:15:00Z</time>
      </trkpt>
      <trkpt lat="41.454898" lon="0.734695">
        <ele>307.513</ele>
        <time>2019-04-28T23:15:20Z</time>
      </trkpt>
      <trkpt lat="41.454811" lon="0.734815">
        <ele>308.380</ele>
        <time>2019-04-28T23:15:40Z</time>
      </trkpt>
      <trkpt lat="41.454636" lon="0.735172">
        <ele>307.852</ele>
        <time>2019-04-28T23:16:00Z</time>
      </trkpt>
      <trkpt lat="41.454483" lon="0.735397">
        <ele>307.553</ele>
        <time>2019-04-28T23:16:20Z</time>
      </trkpt>
      <trkpt lat="41.454222" lon="0.735816">
        <ele>305.008</ele>
        <time>2019-04-28T23:16:40Z</time>
      </trkpt>
      <trkpt lat="41.454152" lon="0.736022">
        <ele>303.808</ele>
        <time>2019-04-28T23:17:00Z</time>
      </trkpt>
      <trkpt lat="41.453949" lon="0.736403">
        <ele>303.318</ele>
        <time>2019-04-28T23:17:20Z</time>
      </trkpt>
      <trkpt lat="41.453880" lon="0.736559">
        <ele>302.380</ele>
        <time>2019-04-28T23:17:40Z</time>
      </trkpt>
      <trkpt lat="41.453699" lon="0.736741">
        <ele>305.933</ele>
        <time>2019-04-28T23:18:00Z</time>
      </trkpt>
      <trkpt lat="41.453619" lon="0.736881">
        <ele>305.456</ele>
        <time>2019-04-28T23:18:20Z</time>
      </trkpt>
      <trkpt lat="41.453360" lon="0.737232">
        <ele>310.581</ele>
        <time>2019-04-28T23:18:40Z</time>
      </trkpt>
      <trkpt lat="41.453249" lon="0.737318">
        <ele>311.232</ele>
        <time>2019-04-28T23:19:00Z</time>
      </trkpt>
      <trkpt lat="41.453167" lon="0.737524">
        <ele>307.942</ele>
        <time>2019-04-28T23:19:20Z</time>
      </trkpt>
      <trkpt lat="41.453157" lon="0.737607">
        <ele>306.569</ele>
        <time>2019-04-28T23:19:40Z</time>
      </trkpt>
      <trkpt lat="41.453098" lon="0.737707">
        <ele>306.393</ele>
        <time>2019-04-28T23:20:00Z</time>
      </trkpt>
      <trkpt lat="41.452990" lon="0.737870">
        <ele>307.165</ele>
        <time>2019-04-28T23:20:20Z</time>
      </trkpt>
      <trkpt lat="41.452889" lon="0.737913">
        <ele>309.521</ele>
        <time>2019-04-28T23:20:40Z</time>
      </trkpt>
      <trkpt lat="41.452837" lon="0.737940">
        <ele>310.708</ele>
        <time>2019-04-28T23:21:00Z</time>
      </trkpt>
      <trkpt lat="41.452813" lon="0.738012">
        <ele>310.652</ele>
        <time>2019-04-28T23:21:20Z</time>
      </trkpt>
      <trkpt lat="41.452706" lon="0.738085">
        <ele>312.714</ele>
        <time>2019-04-28T23:21:40Z</time>
      </trkpt>
      <trkpt lat="41.452449" lon="0.738369">
        <ele>317.167</ele>
        <time>2019-04-28T23:22:00Z</time>
      </trkpt>
      <trkpt lat="41.452248" lon="0.738713">
        <ele>317.810</ele>
        <time>2019-04-28T23:22:20Z</time>
      </trkpt>
      <trkpt lat="41.452071" lon="0.739174">
        <ele>316.815</ele>
        <time>2019-04-28T23:22:40Z</time>
      </trkpt>
      <trkpt lat="41.451886" lon="0.739346">
        <ele>320.366</ele>
        <time>2019-04-28T23:23:00Z</time>
      </trkpt>
      <trkpt lat="41.451637" lon="0.739592">
        <ele>324.276</ele>
        <time>2019-04-28T23:23:20Z</time>
      </trkpt>
      <trkpt lat="41.451363" lon="0.739828">
        <ele>327.363</ele>
        <time>2019-04-28T23:23:40Z</time>
      </trkpt>
      <trkpt lat="41.451283" lon="0.739807">
        <ele>329.377</ele>
        <time>2019-04-28T23:24:00Z</time>
      </trkpt>
      <trkpt lat="41.451074" lon="0.739667">
        <ele>335.261</ele>
        <time>2019-04-28T23:24:20Z</time>
      </trkpt>
      <trkpt lat="41.450961" lon="0.739603">
        <ele>337.127</ele>
        <time>2019-04-28T23:24:40Z</time>
      </trkpt>
      <trkpt lat="41.450712" lon="0.739775">
        <ele>337.908</ele>
        <time>2019-04-28T23:25:00Z</time>
      </trkpt>
      <trkpt lat="41.450439" lon="0.739914">
        <ele>340.670</ele>
        <time>2019-04-28T23:25:20Z</time>
      </trkpt>
      <trkpt lat="41.450286" lon="0.739818">
        <ele>342.642</ele>
        <time>2019-04-28T23:25:40Z</time>
      </trkpt>
      <trkpt lat="41.449964" lon="0.739603">
        <ele>347.615</ele>
        <time>2019-04-28T23:26:00Z</time>
      </trkpt>
      <trkpt lat="41.449542" lon="0.739378">
        <ele>360.698</ele>
        <time>2019-04-28T23:26:20Z</time>
      </trkpt>
      <trkpt lat="41.449409" lon="0.739399">
        <ele>363.283</ele>
        <time>2019-04-28T23:26:40Z</time>
      </trkpt>
      <trkpt lat="41.449285" lon="0.739453">
        <ele>364.234</ele>
        <time>2019-04-28T23:27:00Z</time>
      </trkpt>
      <trkpt lat="41.449168" lon="0.739517">
        <ele>364.944</ele>
        <time>2019-04-28T23:27:20Z</time>
      </trkpt>
      <trkpt lat="41.448959" lon="0.739759">
        <ele>363.181</ele>
        <time>2019-04-28T23:27:40Z</time>
      </trkpt>
      <trkpt lat="41.448754" lon="0.740258">
        <ele>360.699</ele>
        <time>2019-04-28T23:28:00Z</time>
      </trkpt>
      <trkpt lat="41.448473" lon="0.740982">
        <ele>360.407</ele>
        <time>2019-04-28T23:28:20Z</time>
      </trkpt>
      <trkpt lat="41.448336" lon="0.741577">
        <ele>360.227</ele>
        <time>2019-04-28T23:28:40Z</time>
      </trkpt>
      <trkpt lat="41.448324" lon="0.742393">
        <ele>362.108</ele>
        <time>2019-04-28T23:29:00Z</time>
      </trkpt>
      <trkpt lat="41.447729" lon="0.743396">
        <ele>364.792</ele>
        <time>2019-04-28T23:29:20Z</time>
      </trkpt>
      <trkpt lat="41.447475" lon="0.743836">
        <ele>362.824</ele>
        <time>2019-04-28T23:29:40Z</time>
      </trkpt>
      <trkpt lat="41.447258" lon="0.744356">
        <ele>362.667</ele>
        <time>2019-04-28T23:30:00Z</time>
      </trkpt>
      <trkpt lat="41.447077" lon="0.744587">
        <ele>363.180</ele>
        <time>2019-04-28T23:30:20Z</time>
      </trkpt>
      <trkpt lat="41.446860" lon="0.744748">
        <ele>363.525</ele>
        <time>2019-04-28T23:30:40Z</time>
      </trkpt>
      <trkpt lat="41.446526" lon="0.745558">
        <ele>356.536</ele>
        <time>2019-04-28T23:31:00Z</time>
      </trkpt>
      <trkpt lat="41.446221" lon="0.745922">
        <ele>355.066</ele>
        <time>2019-04-28T23:31:20Z</time>
      </trkpt>
      <trkpt lat="41.446040" lon="0.746244">
        <ele>354.563</ele>
        <time>2019-04-28T23:31:40Z</time>
      </trkpt>
      <trkpt lat="41.445758" lon="0.746459">
        <ele>355.856</ele>
        <time>2019-04-28T23:32:00Z</time>
      </trkpt>
      <trkpt lat="41.445336" lon="0.746743">
        <ele>352.959</ele>
        <time>2019-04-28T23:32:20Z</time>
      </trkpt>
      <trkpt lat="41.445095" lon="0.746604">
        <ele>354.314</ele>
        <time>2019-04-28T23:32:40Z</time>
      </trkpt>
      <trkpt lat="41.444958" lon="0.746636">
        <ele>354.408</ele>
        <time>2019-04-28T23:33:00Z</time>
      </trkpt>
      <trkpt lat="41.444902" lon="0.746807">
        <ele>353.688</ele>
        <time>2019-04-28T23:33:20Z</time>
      </trkpt>
      <trkpt lat="41.444829" lon="0.747038">
        <ele>353.170</ele>
        <time>2019-04-28T23:33:40Z</time>
      </trkpt>
      <trkpt lat="41.444846" lon="0.747532">
        <ele>347.933</ele>
        <time>2019-04-28T23:34:00Z</time>
      </trkpt>
      <trkpt lat="41.444653" lon="0.747628">
        <ele>350.216</ele>
        <time>2019-04-28T23:34:20Z</time>
      </trkpt>
      <trkpt lat="41.444484" lon="0.747666">
        <ele>352.091</ele>
        <time>2019-04-28T23:34:40Z</time>
      </trkpt>
      <trkpt lat="41.444415" lon="0.747816">
        <ele>350.852</ele>
        <time>2019-04-28T23:35:00Z</time>
      </trkpt>
      <trkpt lat="41.444383" lon="0.748363">
        <ele>347.652</ele>
        <time>2019-04-28T23:35:20Z</time>
      </trkpt>
      <trkpt lat="41.444592" lon="0.748835">
        <ele>344.069</ele>
        <time>2019-04-28T23:35:40Z</time>
      </trkpt>
      <trkpt lat="41.444544" lon="0.749409">
        <ele>346.574</ele>
        <time>2019-04-28T23:36:00Z</time>
      </trkpt>
      <trkpt lat="41.444572" lon="0.750589">
        <ele>341.056</ele>
        <time>2019-04-28T23:36:20Z</time>
      </trkpt>
      <trkpt lat="41.444242" lon="0.751072">
        <ele>342.721</ele>
        <time>2019-04-28T23:36:40Z</time>
      </trkpt>
      <trkpt lat="41.443716" lon="0.751737">
        <ele>339.908</ele>
        <time>2019-04-28T23:37:00Z</time>
      </trkpt>
      <trkpt lat="41.442891" lon="0.752837">
        <ele>340.950</ele>
        <time>2019-04-28T23:37:20Z</time>
      </trkpt>
      <trkpt lat="41.442759" lon="0.752950">
        <ele>342.782</ele>
        <time>2019-04-28T23:37:40Z</time>
      </trkpt>
      <trkpt lat="41.442031" lon="0.754677">
        <ele>338.375</ele>
        <time>2019-04-28T23:38:00Z</time>
      </trkpt>
      <trkpt lat="41.441862" lon="0.755095">
        <ele>338.738</ele>
        <time>2019-04-28T23:38:20Z</time>
      </trkpt>
      <trkpt lat="41.441552" lon="0.755519">
        <ele>339.693</ele>
        <time>2019-04-28T23:38:40Z</time>
      </trkpt>
      <trkpt lat="41.441279" lon="0.756533">
        <ele>340.884</ele>
        <time>2019-04-28T23:39:00Z</time>
      </trkpt>
      <trkpt lat="41.441074" lon="0.757182">
        <ele>344.474</ele>
        <time>2019-04-28T23:39:20Z</time>
      </trkpt>
      <trkpt lat="41.441037" lon="0.757955">
        <ele>346.481</ele>
        <time>2019-04-28T23:39:40Z</time>
      </trkpt>
      <trkpt lat="41.440905" lon="0.758293">
        <ele>353.113</ele>
        <time>2019-04-28T23:40:00Z</time>
      </trkpt>
      <trkpt lat="41.440804" lon="0.758663">
        <ele>353.043</ele>
        <time>2019-04-28T23:40:20Z</time>
      </trkpt>
      <trkpt lat="41.440704" lon="0.759038">
        <ele>350.107</ele>
        <time>2019-04-28T23:40:40Z</time>
      </trkpt>
      <trkpt lat="41.440591" lon="0.759242">
        <ele>351.108</ele>
        <time>2019-04-28T23:41:00Z</time>
      </trkpt>
      <trkpt lat="41.440374" lon="0.759687">
        <ele>352.634</ele>
        <time>2019-04-28T23:41:20Z</time>
      </trkpt>
      <trkpt lat="41.440177" lon="0.759848">
        <ele>353.966</ele>
        <time>2019-04-28T23:41:40Z</time>
      </trkpt>
      <trkpt lat="41.439618" lon="0.761286">
        <ele>355.449</ele>
        <time>2019-04-28T23:42:00Z</time>
      </trkpt>
      <trkpt lat="41.439533" lon="0.761758">
        <ele>357.452</ele>
        <time>2019-04-28T23:42:20Z</time>
      </trkpt>
      <trkpt lat="41.439650" lon="0.762316">
        <ele>354.487</ele>
        <time>2019-04-28T23:42:40Z</time>
      </trkpt>
      <trkpt lat="41.439831" lon="0.762960">
        <ele>354.338</ele>
        <time>2019-04-28T23:43:00Z</time>
      </trkpt>
      <trkpt lat="41.439743" lon="0.763469">
        <ele>355.618</ele>
        <time>2019-04-28T23:43:20Z</time>
      </trkpt>
      <trkpt lat="41.439340" lon="0.763807">
        <ele>357.055</ele>
        <time>2019-04-28T23:43:40Z</time>
      </trkpt>
      <trkpt lat="41.439163" lon="0.763802">
        <ele>358.674</ele>
        <time>2019-04-28T23:44:00Z</time>
      </trkpt>
      <trkpt lat="41.438753" lon="0.763732">
        <ele>361.956</ele>
        <time>2019-04-28T23:44:20Z</time>
      </trkpt>
      <trkpt lat="41.437772" lon="0.763550">
        <ele>363.121</ele>
        <time>2019-04-28T23:44:40Z</time>
      </trkpt>
      <trkpt lat="41.437667" lon="0.763550">
        <ele>363.608</ele>
        <time>2019-04-28T23:45:00Z</time>
      </trkpt>
      <trkpt lat="41.437028" lon="0.763872">
        <ele>362.560</ele>
        <time>2019-04-28T23:45:20Z</time>
      </trkpt>
      <trkpt lat="41.436654" lon="0.764054">
        <ele>366.462</ele>
        <time>2019-04-28T23:45:40Z</time>
      </trkpt>
      <trkpt lat="41.436501" lon="0.764167">
        <ele>366.835</ele>
        <time>2019-04-28T23:46:00Z</time>
      </trkpt>
      <trkpt lat="41.435552" lon="0.764778">
        <ele>363.178</ele>
        <time>2019-04-28T23:46:20Z</time>
      </trkpt>
      <trkpt lat="41.435246" lon="0.765148">
        <ele>366.923</ele>
        <time>2019-04-28T23:46:40Z</time>
      </trkpt>
      <trkpt lat="41.434820" lon="0.765765">
        <ele>369.864</ele>
        <time>2019-04-28T23:47:00Z</time>
      </trkpt>
      <trkpt lat="41.434768" lon="0.765808">
        <ele>369.864</ele>
        <time>2019-04-28T23:47:20Z</time>
      </trkpt>
      <trkpt lat="41.434522" lon="0.765873">
        <ele>372.481</ele>
        <time>2019-04-28T23:47:40Z</time>
      </trkpt>
      <trkpt lat="41.434273" lon="0.766076">
        <ele>374.726</ele>
        <time>2019-04-28T23:48:00Z</time>
      </trkpt>
      <trkpt lat="41.434068" lon="0.766275">
        <ele>376.847</ele>
        <time>2019-04-28T23:48:20Z</time>
      </trkpt>
      <trkpt lat="41.433963" lon="0.766484">
        <ele>375.811</ele>
        <time>2019-04-28T23:48:40Z</time>
      </trkpt>
      <trkpt lat="41.433702" lon="0.767326">
        <ele>368.608</ele>
        <time>2019-04-28T23:49:00Z</time>
      </trkpt>
      <trkpt lat="41.433477" lon="0.767777">
        <ele>370.935</ele>
        <time>2019-04-28T23:49:20Z</time>
      </trkpt>
      <trkpt lat="41.432930" lon="0.768979">
        <ele>371.927</ele>
        <time>2019-04-28T23:49:40Z</time>
      </trkpt>
      <trkpt lat="41.432817" lon="0.769708">
        <ele>368.490</ele>
        <time>2019-04-28T23:50:00Z</time>
      </trkpt>
      <trkpt lat="41.432479" lon="0.770717">
        <ele>371.143</ele>
        <time>2019-04-28T23:50:20Z</time>
      </trkpt>
      <trkpt lat="41.432061" lon="0.771081">
        <ele>375.238</ele>
        <time>2019-04-28T23:50:40Z</time>
      </trkpt>
      <trkpt lat="41.431144" lon="0.771296">
        <ele>377.149</ele>
        <time>2019-04-28T23:51:00Z</time>
      </trkpt>
      <trkpt lat="41.430324" lon="0.771403">
        <ele>384.019</ele>
        <time>2019-04-28T23:51:20Z</time>
      </trkpt>
      <trkpt lat="41.429841" lon="0.771790">
        <ele>382.856</ele>
        <time>2019-04-28T23:51:40Z</time>
      </trkpt>
      <trkpt lat="41.429487" lon="0.772176">
        <ele>383.823</ele>
        <time>2019-04-28T23:52:00Z</time>
      </trkpt>
      <trkpt lat="41.428827" lon="0.773163">
        <ele>377.283</ele>
        <time>2019-04-28T23:52:20Z</time>
      </trkpt>
      <trkpt lat="41.428924" lon="0.773742">
        <ele>377.411</ele>
        <time>2019-04-28T23:52:40Z</time>
      </trkpt>
      <trkpt lat="41.428650" lon="0.773849">
        <ele>381.908</ele>
        <time>2019-04-28T23:53:00Z</time>
      </trkpt>
      <trkpt lat="41.428313" lon="0.773613">
        <ele>381.125</ele>
        <time>2019-04-28T23:53:20Z</time>
      </trkpt>
      <trkpt lat="41.427749" lon="0.773785">
        <ele>384.427</ele>
        <time>2019-04-28T23:53:40Z</time>
      </trkpt>
      <trkpt lat="41.427685" lon="0.774107">
        <ele>388.550</ele>
        <time>2019-04-28T23:54:00Z</time>
      </trkpt>
      <trkpt lat="41.427830" lon="0.774364">
        <ele>391.823</ele>
        <time>2019-04-28T23:54:20Z</time>
      </trkpt>
      <trkpt lat="41.427943" lon="0.774729">
        <ele>395.278</ele>
        <time>2019-04-28T23:54:40Z</time>
      </trkpt>
      <trkpt lat="41.427830" lon="0.775459">
        <ele>402.179</ele>
        <time>2019-04-28T23:55:00Z</time>
      </trkpt>
      <trkpt lat="41.427556" lon="0.775716">
        <ele>403.769</ele>
        <time>2019-04-28T23:55:20Z</time>
      </trkpt>
      <trkpt lat="41.427347" lon="0.775824">
        <ele>403.426</ele>
        <time>2019-04-28T23:55:40Z</time>
      </trkpt>
      <trkpt lat="41.427202" lon="0.776060">
        <ele>405.413</ele>
        <time>2019-04-28T23:56:00Z</time>
      </trkpt>
      <trkpt lat="41.427090" lon="0.776253">
        <ele>407.843</ele>
        <time>2019-04-28T23:56:20Z</time>
      </trkpt>
      <trkpt lat="41.426865" lon="0.776660">
        <ele>414.007</ele>
        <time>2019-04-28T23:56:40Z</time>
      </trkpt>
      <trkpt lat="41.426623" lon="0.776811">
        <ele>413.808</ele>
        <time>2019-04-28T23:57:00Z</time>
      </trkpt>
      <trkpt lat="41.426205" lon="0.777540">
        <ele>414.564</ele>
        <time>2019-04-28T23:57:20Z</time>
      </trkpt>
      <trkpt lat="41.426205" lon="0.778012">
        <ele>417.146</ele>
        <time>2019-04-28T23:57:40Z</time>
      </trkpt>
      <trkpt lat="41.426108" lon="0.778420">
        <ele>417.649</ele>
        <time>2019-04-28T23:58:00Z</time>
      </trkpt>
      <trkpt lat="41.426028" lon="0.779922">
        <ele>426.432</ele>
        <time>2019-04-28T23:58:20Z</time>
      </trkpt>
      <trkpt lat="41.425948" lon="0.780265">
        <ele>423.977</ele>
        <time>2019-04-28T23:58:40Z</time>
      </trkpt>
      <trkpt lat="41.426414" lon="0.781059">
        <ele>427.268</ele>
        <time>2019-04-28T23:59:00Z</time>
      </trkpt>
      <trkpt lat="41.426285" lon="0.782454">
        <ele>432.278</ele>
        <time>2019-04-28T23:59:20Z</time>
      </trkpt>
      <trkpt lat="41.425771" lon="0.782068">
        <ele>428.025</ele>
        <time>2019-04-28T23:59:40Z</time>
      </trkpt>
      <trkpt lat="41.425626" lon="0.781639">
        <ele>427.399</ele>
        <time>2019-04-29T00:00:00Z</time>
      </trkpt>
      <trkpt lat="41.425159" lon="0.781617">
        <ele>424.107</ele>
        <time>2019-04-29T00:00:20Z</time>
      </trkpt>
      <trkpt lat="41.425063" lon="0.782304">
        <ele>422.927</ele>
        <time>2019-04-29T00:00:40Z</time>
      </trkpt>
      <trkpt lat="41.425288" lon="0.783033">
        <ele>426.108</ele>
        <time>2019-04-29T00:01:00Z</time>
      </trkpt>
      <trkpt lat="41.425191" lon="0.783312">
        <ele>421.612</ele>
        <time>2019-04-29T00:01:20Z</time>
      </trkpt>
      <trkpt lat="41.424902" lon="0.783527">
        <ele>419.944</ele>
        <time>2019-04-29T00:01:40Z</time>
      </trkpt>
      <trkpt lat="41.424628" lon="0.783398">
        <ele>419.757</ele>
        <time>2019-04-29T00:02:00Z</time>
      </trkpt>
      <trkpt lat="41.424162" lon="0.783677">
        <ele>421.560</ele>
        <time>2019-04-29T00:02:20Z</time>
      </trkpt>
      <trkpt lat="41.423952" lon="0.783720">
        <ele>421.895</ele>
        <time>2019-04-29T00:02:40Z</time>
      </trkpt>
      <trkpt lat="41.423759" lon="0.784096">
        <ele>424.926</ele>
        <time>2019-04-29T00:03:00Z</time>
      </trkpt>
      <trkpt lat="41.423389" lon="0.784664">
        <ele>427.296</ele>
        <time>2019-04-29T00:03:20Z</time>
      </trkpt>
      <trkpt lat="41.423116" lon="0.785522">
        <ele>425.683</ele>
        <time>2019-04-29T00:03:40Z</time>
      </trkpt>
      <trkpt lat="41.422882" lon="0.786477">
        <ele>427.385</ele>
        <time>2019-04-29T00:04:00Z</time>
      </trkpt>
      <trkpt lat="41.422593" lon="0.786788">
        <ele>429.189</ele>
        <time>2019-04-29T00:04:20Z</time>
      </trkpt>
      <trkpt lat="41.422496" lon="0.787207">
        <ele>430.917</ele>
        <time>2019-04-29T00:04:40Z</time>
      </trkpt>
      <trkpt lat="41.422585" lon="0.787936">
        <ele>431.408</ele>
        <time>2019-04-29T00:05:00Z</time>
      </trkpt>
      <trkpt lat="41.422858" lon="0.788451">
        <ele>437.791</ele>
        <time>2019-04-29T00:05:20Z</time>
      </trkpt>
      <trkpt lat="41.422722" lon="0.788924">
        <ele>437.813</ele>
        <time>2019-04-29T00:05:40Z</time>
      </trkpt>
      <trkpt lat="41.422561" lon="0.789213">
        <ele>438.636</ele>
        <time>2019-04-29T00:06:00Z</time>
      </trkpt>
      <trkpt lat="41.422094" lon="0.789717">
        <ele>440.569</ele>
        <time>2019-04-29T00:06:20Z</time>
      </trkpt>
      <trkpt lat="41.422006" lon="0.789953">
        <ele>441.134</ele>
        <time>2019-04-29T00:06:40Z</time>
      </trkpt>
      <trkpt lat="41.422150" lon="0.790340">
        <ele>445.695</ele>
        <time>2019-04-29T00:07:00Z</time>
      </trkpt>
      <trkpt lat="41.422014" lon="0.790479">
        <ele>447.115</ele>
        <time>2019-04-29T00:07:20Z</time>
      </trkpt>
      <trkpt lat="41.420678" lon="0.791048">
        <ele>447.032</ele>
        <time>2019-04-29T00:07:40Z</time>
      </trkpt>
      <trkpt lat="41.420493" lon="0.790983">
        <ele>446.955</ele>
        <time>2019-04-29T00:08:00Z</time>
      </trkpt>
      <trkpt lat="41.419841" lon="0.791337">
        <ele>447.907</ele>
        <time>2019-04-29T00:08:20Z</time>
      </trkpt>
      <trkpt lat="41.419302" lon="0.791509">
        <ele>449.417</ele>
        <time>2019-04-29T00:08:40Z</time>
      </trkpt>
      <trkpt lat="41.418474" lon="0.792153">
        <ele>456.008</ele>
        <time>2019-04-29T00:09:00Z</time>
      </trkpt>
      <trkpt lat="41.417894" lon="0.792453">
        <ele>459.368</ele>
        <time>2019-04-29T00:09:20Z</time>
      </trkpt>
      <trkpt lat="41.417798" lon="0.792561">
        <ele>459.850</ele>
        <time>2019-04-29T00:09:40Z</time>
      </trkpt>
      <trkpt lat="41.417758" lon="0.792807">
        <ele>461.783</ele>
        <time>2019-04-29T00:10:00Z</time>
      </trkpt>
      <trkpt lat="41.417790" lon="0.793204">
        <ele>462.736</ele>
        <time>2019-04-29T00:10:20Z</time>
      </trkpt>
      <trkpt lat="41.418095" lon="0.793644">
        <ele>467.641</ele>
        <time>2019-04-29T00:10:40Z</time>
      </trkpt>
      <trkpt lat="41.418095" lon="0.793751">
        <ele>467.662</ele>
        <time>2019-04-29T00:11:00Z</time>
      </trkpt>
      <trkpt lat="41.418031" lon="0.793945">
        <ele>467.272</ele>
        <time>2019-04-29T00:11:20Z</time>
      </trkpt>
      <trkpt lat="41.417894" lon="0.794213">
        <ele>468.489</ele>
        <time>2019-04-29T00:11:40Z</time>
      </trkpt>
      <trkpt lat="41.417806" lon="0.794663">
        <ele>473.513</ele>
        <time>2019-04-29T00:12:00Z</time>
      </trkpt>
      <trkpt lat="41.417701" lon="0.794867">
        <ele>474.943</ele>
        <time>2019-04-29T00:12:20Z</time>
      </trkpt>
      <trkpt lat="41.417589" lon="0.795017">
        <ele>475.507</ele>
        <time>2019-04-29T00:12:40Z</time>
      </trkpt>
      <trkpt lat="41.417363" lon="0.795007">
        <ele>475.108</ele>
        <time>2019-04-29T00:13:00Z</time>
      </trkpt>
      <trkpt lat="41.417323" lon="0.795296">
        <ele>478.214</ele>
        <time>2019-04-29T00:13:20Z</time>
      </trkpt>
      <trkpt lat="41.417468" lon="0.795929">
        <ele>486.656</ele>
        <time>2019-04-29T00:13:40Z</time>
      </trkpt>
      <trkpt lat="41.417307" lon="0.796477">
        <ele>490.099</ele>
        <time>2019-04-29T00:14:00Z</time>
      </trkpt>
      <trkpt lat="41.417025" lon="0.796895">
        <ele>492.832</ele>
        <time>2019-04-29T00:14:20Z</time>
      </trkpt>
      <trkpt lat="41.417074" lon="0.797281">
        <ele>497.527</ele>
        <time>2019-04-29T00:14:40Z</time>
      </trkpt>
      <trkpt lat="41.416881" lon="0.797818">
        <ele>499.258</ele>
        <time>2019-04-29T00:15:00Z</time>
      </trkpt>
      <trkpt lat="41.416470" lon="0.798494">
        <ele>496.588</ele>
        <time>2019-04-29T00:15:20Z</time>
      </trkpt>
      <trkpt lat="41.416189" lon="0.798869">
        <ele>494.625</ele>
        <time>2019-04-29T00:15:40Z</time>
      </trkpt>
      <trkpt lat="41.416510" lon="0.799534">
        <ele>502.267</ele>
        <time>2019-04-29T00:16:00Z</time>
      </trkpt>
      <trkpt lat="41.416704" lon="0.799878">
        <ele>504.281</ele>
        <time>2019-04-29T00:16:20Z</time>
      </trkpt>
      <trkpt lat="41.417009" lon="0.800114">
        <ele>507.919</ele>
        <time>2019-04-29T00:16:40Z</time>
      </trkpt>
      <trkpt lat="41.417025" lon="0.800500">
        <ele>504.108</ele>
        <time>2019-04-29T00:17:00Z</time>
      </trkpt>
      <trkpt lat="41.417017" lon="0.801219">
        <ele>505.049</ele>
        <time>2019-04-29T00:17:20Z</time>
      </trkpt>
      <trkpt lat="41.416937" lon="0.801873">
        <ele>506.521</ele>
        <time>2019-04-29T00:17:40Z</time>
      </trkpt>
      <trkpt lat="41.416856" lon="0.802345">
        <ele>506.314</ele>
        <time>2019-04-29T00:18:00Z</time>
      </trkpt>
      <trkpt lat="41.416728" lon="0.802571">
        <ele>507.297</ele>
        <time>2019-04-29T00:18:20Z</time>
      </trkpt>
      <trkpt lat="41.416696" lon="0.803139">
        <ele>510.422</ele>
        <time>2019-04-29T00:18:40Z</time>
      </trkpt>
      <trkpt lat="41.417025" lon="0.803804">
        <ele>504.053</ele>
        <time>2019-04-29T00:19:00Z</time>
      </trkpt>
      <trkpt lat="41.416913" lon="0.804577">
        <ele>504.033</ele>
        <time>2019-04-29T00:19:20Z</time>
      </trkpt>
      <trkpt lat="41.416921" lon="0.805221">
        <ele>499.570</ele>
        <time>2019-04-29T00:19:40Z</time>
      </trkpt>
      <trkpt lat="41.417050" lon="0.805500">
        <ele>496.996</ele>
        <time>2019-04-29T00:20:00Z</time>
      </trkpt>
      <trkpt lat="41.417114" lon="0.806015">
        <ele>494.131</ele>
        <time>2019-04-29T00:20:20Z</time>
      </trkpt>
      <trkpt lat="41.416865" lon="0.806808">
        <ele>492.624</ele>
        <time>2019-04-29T00:20:40Z</time>
      </trkpt>
      <trkpt lat="41.416736" lon="0.807184">
        <ele>492.608</ele>
        <time>2019-04-29T00:21:00Z</time>
      </trkpt>
      <trkpt lat="41.416865" lon="0.807720">
        <ele>490.712</ele>
        <time>2019-04-29T00:21:20Z</time>
      </trkpt>
      <trkpt lat="41.416873" lon="0.807967">
        <ele>491.254</ele>
        <time>2019-04-29T00:21:40Z</time>
      </trkpt>
      <trkpt lat="41.417009" lon="0.809180">
        <ele>482.627</ele>
        <time>2019-04-29T00:22:00Z</time>
      </trkpt>
      <trkpt lat="41.416913" lon="0.809737">
        <ele>475.770</ele>
        <time>2019-04-29T00:22:20Z</time>
      </trkpt>
      <trkpt lat="41.417082" lon="0.810392">
        <ele>472.995</ele>
        <time>2019-04-29T00:22:40Z</time>
      </trkpt>
      <trkpt lat="41.417339" lon="0.810692">
        <ele>469.996</ele>
        <time>2019-04-29T00:23:00Z</time>
      </trkpt>
      <trkpt lat="41.417532" lon="0.810832">
        <ele>470.426</ele>
        <time>2019-04-29T00:23:20Z</time>
      </trkpt>
      <trkpt lat="41.417548" lon="0.811036">
        <ele>469.823</ele>
        <time>2019-04-29T00:23:40Z</time>
      </trkpt>
      <trkpt lat="41.417452" lon="0.811272">
        <ele>468.498</ele>
        <time>2019-04-29T00:24:00Z</time>
      </trkpt>
      <trkpt lat="41.417219" lon="0.811626">
        <ele>465.015</ele>
        <time>2019-04-29T00:24:20Z</time>
      </trkpt>
      <trkpt lat="41.416985" lon="0.811851">
        <ele>462.626</ele>
        <time>2019-04-29T00:24:40Z</time>
      </trkpt>
      <trkpt lat="41.416865" lon="0.811980">
        <ele>461.408</ele>
        <time>2019-04-29T00:25:00Z</time>
      </trkpt>
      <trkpt lat="41.416736" lon="0.812227">
        <ele>461.032</ele>
        <time>2019-04-29T00:25:20Z</time>
      </trkpt>
      <trkpt lat="41.416502" lon="0.812548">
        <ele>459.774</ele>
        <time>2019-04-29T00:25:40Z</time>
      </trkpt>
      <trkpt lat="41.416430" lon="0.812581">
        <ele>459.327</ele>
        <time>2019-04-29T00:26:00Z</time>
      </trkpt>
      <trkpt lat="41.416148" lon="0.813117">
        <ele>457.150</ele>
        <time>2019-04-29T00:26:20Z</time>
      </trkpt>
      <trkpt lat="41.415939" lon="0.813224">
        <ele>454.595</ele>
        <time>2019-04-29T00:26:40Z</time>
      </trkpt>
      <trkpt lat="41.415521" lon="0.813750">
        <ele>449.186</ele>
        <time>2019-04-29T00:27:00Z</time>
      </trkpt>
      <trkpt lat="41.415971" lon="0.814780">
        <ele>444.166</ele>
        <time>2019-04-29T00:27:20Z</time>
      </trkpt>
      <trkpt lat="41.416398" lon="0.814984">
        <ele>444.363</ele>
        <time>2019-04-29T00:27:40Z</time>
      </trkpt>
      <trkpt lat="41.417090" lon="0.815295">
        <ele>436.137</ele>
        <time>2019-04-29T00:28:00Z</time>
      </trkpt>
      <trkpt lat="41.417412" lon="0.815488">
        <ele>432.149</ele>
        <time>2019-04-29T00:28:20Z</time>
      </trkpt>
      <trkpt lat="41.417379" lon="0.815670">
        <ele>428.513</ele>
        <time>2019-04-29T00:28:40Z</time>
      </trkpt>
      <trkpt lat="41.417379" lon="0.815982">
        <ele>424.308</ele>
        <time>2019-04-29T00:29:00Z</time>
      </trkpt>
      <trkpt lat="41.417492" lon="0.816175">
        <ele>423.526</ele>
        <time>2019-04-29T00:29:20Z</time>
      </trkpt>
      <trkpt lat="41.417267" lon="0.816078">
        <ele>422.758</ele>
        <time>2019-04-29T00:29:40Z</time>
      </trkpt>
      <trkpt lat="41.417162" lon="0.816078">
        <ele>423.251</ele>
        <time>2019-04-29T00:30:00Z</time>
      </trkpt>
      <trkpt lat="41.417066" lon="0.816293">
        <ele>422.924</ele>
        <time>2019-04-29T00:30:20Z</time>
      </trkpt>
      <trkpt lat="41.416929" lon="0.816615">
        <ele>423.879</ele>
        <time>2019-04-29T00:30:40Z</time>
      </trkpt>
      <trkpt lat="41.416792" lon="0.816979">
        <ele>427.840</ele>
        <time>2019-04-29T00:31:00Z</time>
      </trkpt>
      <trkpt lat="41.416655" lon="0.817119">
        <ele>429.670</ele>
        <time>2019-04-29T00:31:20Z</time>
      </trkpt>
      <trkpt lat="41.416567" lon="0.817387">
        <ele>429.277</ele>
        <time>2019-04-29T00:31:40Z</time>
      </trkpt>
      <trkpt lat="41.416414" lon="0.817720">
        <ele>427.673</ele>
        <time>2019-04-29T00:32:00Z</time>
      </trkpt>
      <trkpt lat="41.416213" lon="0.817945">
        <ele>428.685</ele>
        <time>2019-04-29T00:32:20Z</time>
      </trkpt>
      <trkpt lat="41.416044" lon="0.818052">
        <ele>428.513</ele>
        <time>2019-04-29T00:32:40Z</time>
      </trkpt>
      <trkpt lat="41.415875" lon="0.818149">
        <ele>428.908</ele>
        <time>2019-04-29T00:33:00Z</time>
      </trkpt>
      <trkpt lat="41.415682" lon="0.818342">
        <ele>428.680</ele>
        <time>2019-04-29T00:33:20Z</time>
      </trkpt>
      <trkpt lat="41.415577" lon="0.818460">
        <ele>428.642</ele>
        <time>2019-04-29T00:33:40Z</time>
      </trkpt>
      <trkpt lat="41.415505" lon="0.818567">
        <ele>427.775</ele>
        <time>2019-04-29T00:34:00Z</time>
      </trkpt>
      <trkpt lat="41.415376" lon="0.818578">
        <ele>428.198</ele>
        <time>2019-04-29T00:34:20Z</time>
      </trkpt>
      <trkpt lat="41.415352" lon="0.818642">
        <ele>427.843</ele>
        <time>2019-04-29T00:34:40Z</time>
      </trkpt>
      <trkpt lat="41.415207" lon="0.818535">
        <ele>429.154</ele>
        <time>2019-04-29T00:35:00Z</time>
      </trkpt>
      <trkpt lat="41.415030" lon="0.818353">
        <ele>431.734</ele>
        <time>2019-04-29T00:35:20Z</time>
      </trkpt>
      <trkpt lat="41.414829" lon="0.818074">
        <ele>433.921</ele>
        <time>2019-04-29T00:35:40Z</time>
      </trkpt>
      <trkpt lat="41.413582" lon="0.817902">
        <ele>432.131</ele>
        <time>2019-04-29T00:36:00Z</time>
      </trkpt>
      <trkpt lat="41.413252" lon="0.818095">
        <ele>433.061</ele>
        <time>2019-04-29T00:36:20Z</time>
      </trkpt>
      <trkpt lat="41.413163" lon="0.818267">
        <ele>433.407</ele>
        <time>2019-04-29T00:36:40Z</time>
      </trkpt>
      <trkpt lat="41.413043" lon="0.818396">
        <ele>434.808</ele>
        <time>2019-04-29T00:37:00Z</time>
      </trkpt>
      <trkpt lat="41.412938" lon="0.818739">
        <ele>434.396</ele>
        <time>2019-04-29T00:37:20Z</time>
      </trkpt>
      <trkpt lat="41.412850" lon="0.818954">
        <ele>433.568</ele>
        <time>2019-04-29T00:37:40Z</time>
      </trkpt>
      <trkpt lat="41.412769" lon="0.819318">
        <ele>434.351</ele>
        <time>2019-04-29T00:38:00Z</time>
      </trkpt>
      <trkpt lat="41.412697" lon="0.819629">
        <ele>436.454</ele>
        <time>2019-04-29T00:38:20Z</time>
      </trkpt>
      <trkpt lat="41.412552" lon="0.819865">
        <ele>436.829</ele>
        <time>2019-04-29T00:38:40Z</time>
      </trkpt>
      <trkpt lat="41.412439" lon="0.819973">
        <ele>436.960</ele>
        <time>2019-04-29T00:39:00Z</time>
      </trkpt>
      <trkpt lat="41.412230" lon="0.820134">
        <ele>437.560</ele>
        <time>2019-04-29T00:39:20Z</time>
      </trkpt>
      <trkpt lat="41.411779" lon="0.820305">
        <ele>438.767</ele>
        <time>2019-04-29T00:39:40Z</time>
      </trkpt>
      <trkpt lat="41.411506" lon="0.820552">
        <ele>438.196</ele>
        <time>2019-04-29T00:40:00Z</time>
      </trkpt>
      <trkpt lat="41.411345" lon="0.820713">
        <ele>438.531</ele>
        <time>2019-04-29T00:40:20Z</time>
      </trkpt>
      <trkpt lat="41.411015" lon="0.820649">
        <ele>438.824</ele>
        <time>2019-04-29T00:40:40Z</time>
      </trkpt>
      <trkpt lat="41.410516" lon="0.820166">
        <ele>439.708</ele>
        <time>2019-04-29T00:41:00Z</time>
      </trkpt>
      <trkpt lat="41.409913" lon="0.819801">
        <ele>442.742</ele>
        <time>2019-04-29T00:41:20Z</time>
      </trkpt>
      <trkpt lat="41.409518" lon="0.819844">
        <ele>444.154</ele>
        <time>2019-04-29T00:41:40Z</time>
      </trkpt>
      <trkpt lat="41.409285" lon="0.819876">
        <ele>447.597</ele>
        <time>2019-04-29T00:42:00Z</time>
      </trkpt>
      <trkpt lat="41.409116" lon="0.820198">
        <ele>448.280</ele>
        <time>2019-04-29T00:42:20Z</time>
      </trkpt>
      <trkpt lat="41.408931" lon="0.820649">
        <ele>449.885</ele>
        <time>2019-04-29T00:42:40Z</time>
      </trkpt>
      <trkpt lat="41.408762" lon="0.820992">
        <ele>449.126</ele>
        <time>2019-04-29T00:43:00Z</time>
      </trkpt>
      <trkpt lat="41.408416" lon="0.821496">
        <ele>445.526</ele>
        <time>2019-04-29T00:43:20Z</time>
      </trkpt>
      <trkpt lat="41.408255" lon="0.821561">
        <ele>447.623</ele>
        <time>2019-04-29T00:43:40Z</time>
      </trkpt>
      <trkpt lat="41.408046" lon="0.821604">
        <ele>450.091</ele>
        <time>2019-04-29T00:44:00Z</time>
      </trkpt>
      <trkpt lat="41.407635" lon="0.821389">
        <ele>451.581</ele>
        <time>2019-04-29T00:44:20Z</time>
      </trkpt>
      <trkpt lat="41.406613" lon="0.820402">
        <ele>455.119</ele>
        <time>2019-04-29T00:44:40Z</time>
      </trkpt>
      <trkpt lat="41.406275" lon="0.820262">
        <ele>451.308</ele>
        <time>2019-04-29T00:45:00Z</time>
      </trkpt>
      <trkpt lat="41.405696" lon="0.820230">
        <ele>453.762</ele>
        <time>2019-04-29T00:45:20Z</time>
      </trkpt>
      <trkpt lat="41.404513" lon="0.820853">
        <ele>457.814</ele>
        <time>2019-04-29T00:45:40Z</time>
      </trkpt>
      <trkpt lat="41.403725" lon="0.820981">
        <ele>455.967</ele>
        <time>2019-04-29T00:46:00Z</time>
      </trkpt>
      <trkpt lat="41.403113" lon="0.820616">
        <ele>456.810</ele>
        <time>2019-04-29T00:46:20Z</time>
      </trkpt>
      <trkpt lat="41.402445" lon="0.820187">
        <ele>463.745</ele>
        <time>2019-04-29T00:46:40Z</time>
      </trkpt>
      <trkpt lat="41.402284" lon="0.820241">
        <ele>461.436</ele>
        <time>2019-04-29T00:47:00Z</time>
      </trkpt>
      <trkpt lat="41.401841" lon="0.820595">
        <ele>462.156</ele>
        <time>2019-04-29T00:47:20Z</time>
      </trkpt>
      <trkpt lat="41.401544" lon="0.821056">
        <ele>460.673</ele>
        <time>2019-04-29T00:47:40Z</time>
      </trkpt>
      <trkpt lat="41.400996" lon="0.821496">
        <ele>460.615</ele>
        <time>2019-04-29T00:48:00Z</time>
      </trkpt>
      <trkpt lat="41.400457" lon="0.821614">
        <ele>461.265</ele>
        <time>2019-04-29T00:48:20Z</time>
      </trkpt>
      <trkpt lat="41.400240" lon="0.821614">
        <ele>462.111</ele>
        <time>2019-04-29T00:48:40Z</time>
      </trkpt>
      <trkpt lat="41.399701" lon="0.821722">
        <ele>462.308</ele>
        <time>2019-04-29T00:49:00Z</time>
      </trkpt>
      <trkpt lat="41.399355" lon="0.821732">
        <ele>464.464</ele>
        <time>2019-04-29T00:49:20Z</time>
      </trkpt>
      <trkpt lat="41.398928" lon="0.821807">
        <ele>467.466</ele>
        <time>2019-04-29T00:49:40Z</time>
      </trkpt>
      <trkpt lat="41.398437" lon="0.821614">
        <ele>466.289</ele>
        <time>2019-04-29T00:50:00Z</time>
      </trkpt>
      <trkpt lat="41.397367" lon="0.820981">
        <ele>467.812</ele>
        <time>2019-04-29T00:50:20Z</time>
      </trkpt>
      <trkpt lat="41.396691" lon="0.821217">
        <ele>463.387</ele>
        <time>2019-04-29T00:50:40Z</time>
      </trkpt>
      <trkpt lat="41.395773" lon="0.821625">
        <ele>469.538</ele>
        <time>2019-04-29T00:51:00Z</time>
      </trkpt>
      <trkpt lat="41.394671" lon="0.822408">
        <ele>472.988</ele>
        <time>2019-04-29T00:51:20Z</time>
      </trkpt>
      <trkpt lat="41.394453" lon="0.822848">
        <ele>473.425</ele>
        <time>2019-04-29T00:51:40Z</time>
      </trkpt>
      <trkpt lat="41.394373" lon="0.823374">
        <ele>477.092</ele>
        <time>2019-04-29T00:52:00Z</time>
      </trkpt>
      <trkpt lat="41.394139" lon="0.823760">
        <ele>475.773</ele>
        <time>2019-04-29T00:52:20Z</time>
      </trkpt>
      <trkpt lat="41.393447" lon="0.823814">
        <ele>480.020</ele>
        <time>2019-04-29T00:52:40Z</time>
      </trkpt>
      <trkpt lat="41.392449" lon="0.823835">
        <ele>480.708</ele>
        <time>2019-04-29T00:53:00Z</time>
      </trkpt>
      <trkpt lat="41.392264" lon="0.823932">
        <ele>481.122</ele>
        <time>2019-04-29T00:53:20Z</time>
      </trkpt>
      <trkpt lat="41.391660" lon="0.823900">
        <ele>483.984</ele>
        <time>2019-04-29T00:53:40Z</time>
      </trkpt>
      <trkpt lat="41.391266" lon="0.824050">
        <ele>482.547</ele>
        <time>2019-04-29T00:54:00Z</time>
      </trkpt>
      <trkpt lat="41.390856" lon="0.824629">
        <ele>482.630</ele>
        <time>2019-04-29T00:54:20Z</time>
      </trkpt>
      <trkpt lat="41.390775" lon="0.824811">
        <ele>482.265</ele>
        <time>2019-04-29T00:54:40Z</time>
      </trkpt>
      <trkpt lat="41.390582" lon="0.824865">
        <ele>481.666</ele>
        <time>2019-04-29T00:55:00Z</time>
      </trkpt>
      <trkpt lat="41.390026" lon="0.824050">
        <ele>490.166</ele>
        <time>2019-04-29T00:55:20Z</time>
      </trkpt>
      <trkpt lat="41.389922" lon="0.824071">
        <ele>489.663</ele>
        <time>2019-04-29T00:55:40Z</time>
      </trkpt>
      <trkpt lat="41.390059" lon="0.823910">
        <ele>491.371</ele>
        <time>2019-04-29T00:56:00Z</time>
      </trkpt>
      <trkpt lat="41.389890" lon="0.823352">
        <ele>502.341</ele>
        <time>2019-04-29T00:56:20Z</time>
      </trkpt>
      <trkpt lat="41.389857" lon="0.823106">
        <ele>505.915</ele>
        <time>2019-04-29T00:56:40Z</time>
      </trkpt>
      <trkpt lat="41.389970" lon="0.822912">
        <ele>505.608</ele>
        <time>2019-04-29T00:57:00Z</time>
      </trkpt>
      <trkpt lat="41.389906" lon="0.822408">
        <ele>509.670</ele>
        <time>2019-04-29T00:57:20Z</time>
      </trkpt>
      <trkpt lat="41.389383" lon="0.821636">
        <ele>511.912</ele>
        <time>2019-04-29T00:57:40Z</time>
      </trkpt>
      <trkpt lat="41.388932" lon="0.821453">
        <ele>517.025</ele>
        <time>2019-04-29T00:58:00Z</time>
      </trkpt>
      <trkpt lat="41.388747" lon="0.821239">
        <ele>519.168</ele>
        <time>2019-04-29T00:58:20Z</time>
      </trkpt>
      <trkpt lat="41.388674" lon="0.821228">
        <ele>520.293</ele>
        <time>2019-04-29T00:58:40Z</time>
      </trkpt>
      <trkpt lat="41.388481" lon="0.821346">
        <ele>521.754</ele>
        <time>2019-04-29T00:59:00Z</time>
      </trkpt>
      <trkpt lat="41.388429" lon="0.820938">
        <ele>525.044</ele>
        <time>2019-04-29T00:59:20Z</time>
      </trkpt>
      <trkpt lat="41.388409" lon="0.820772">
        <ele>526.211</ele>
        <time>2019-04-29T00:59:40Z</time>
      </trkpt>
      <trkpt lat="41.388417" lon="0.820643">
        <ele>527.394</ele>
        <time>2019-04-29T01:00:00Z</time>
      </trkpt>
      <trkpt lat="41.388219" lon="0.820477">
        <ele>526.957</ele>
        <time>2019-04-29T01:00:20Z</time>
      </trkpt>
      <trkpt lat="41.388244" lon="0.820413">
        <ele>527.222</ele>
        <time>2019-04-29T01:00:40Z</time>
      </trkpt>
      <trkpt lat="41.388244" lon="0.820075">
        <ele>528.308</ele>
        <time>2019-04-29T01:01:00Z</time>
      </trkpt>
      <trkpt lat="41.388256" lon="0.819785">
        <ele>530.312</ele>
        <time>2019-04-29T01:01:20Z</time>
      </trkpt>
      <trkpt lat="41.388368" lon="0.819163">
        <ele>538.894</ele>
        <time>2019-04-29T01:01:40Z</time>
      </trkpt>
      <trkpt lat="41.388300" lon="0.819082">
        <ele>540.987</ele>
        <time>2019-04-29T01:02:00Z</time>
      </trkpt>
      <trkpt lat="41.388135" lon="0.818991">
        <ele>542.670</ele>
        <time>2019-04-29T01:02:20Z</time>
      </trkpt>
      <trkpt lat="41.388042" lon="0.818878">
        <ele>544.085</ele>
        <time>2019-04-29T01:02:40Z</time>
      </trkpt>
      <trkpt lat="41.387962" lon="0.818712">
        <ele>546.086</ele>
        <time>2019-04-29T01:03:00Z</time>
      </trkpt>
      <trkpt lat="41.387946" lon="0.818406">
        <ele>549.266</ele>
        <time>2019-04-29T01:03:20Z</time>
      </trkpt>
      <trkpt lat="41.388075" lon="0.818224">
        <ele>551.383</ele>
        <time>2019-04-29T01:03:40Z</time>
      </trkpt>
      <trkpt lat="41.388159" lon="0.818063">
        <ele>551.646</ele>
        <time>2019-04-29T01:04:00Z</time>
      </trkpt>
      <trkpt lat="41.388199" lon="0.817709">
        <ele>552.988</ele>
        <time>2019-04-29T01:04:20Z</time>
      </trkpt>
      <trkpt lat="41.388284" lon="0.817409">
        <ele>555.616</ele>
        <time>2019-04-29T01:04:40Z</time>
      </trkpt>
      <trkpt lat="41.388686" lon="0.816786">
        <ele>555.708</ele>
        <time>2019-04-29T01:05:00Z</time>
      </trkpt>
      <trkpt lat="41.389008" lon="0.816244">
        <ele>556.547</ele>
        <time>2019-04-29T01:05:20Z</time>
      </trkpt>
      <trkpt lat="41.389181" lon="0.815676">
        <ele>558.339</ele>
        <time>2019-04-29T01:05:40Z</time>
      </trkpt>
      <trkpt lat="41.389765" lon="0.815295">
        <ele>553.822</ele>
        <time>2019-04-29T01:06:00Z</time>
      </trkpt>
      <trkpt lat="41.389986" lon="0.814834">
        <ele>551.155</ele>
        <time>2019-04-29T01:06:20Z</time>
      </trkpt>
      <trkpt lat="41.390300" lon="0.814624">
        <ele>554.220</ele>
        <time>2019-04-29T01:06:40Z</time>
      </trkpt>
      <trkpt lat="41.390425" lon="0.814093">
        <ele>550.091</ele>
        <time>2019-04-29T01:07:00Z</time>
      </trkpt>
      <trkpt lat="41.391081" lon="0.813611">
        <ele>545.961</ele>
        <time>2019-04-29T01:07:20Z</time>
      </trkpt>
      <trkpt lat="41.391206" lon="0.813482">
        <ele>545.138</ele>
        <time>2019-04-29T01:07:40Z</time>
      </trkpt>
      <trkpt lat="41.391524" lon="0.812929">
        <ele>544.725</ele>
        <time>2019-04-29T01:08:00Z</time>
      </trkpt>
      <trkpt lat="41.390686" lon="0.811030">
        <ele>534.626</ele>
        <time>2019-04-29T01:08:20Z</time>
      </trkpt>
      <trkpt lat="41.390497" lon="0.810569">
        <ele>530.208</ele>
        <time>2019-04-29T01:08:40Z</time>
      </trkpt>
      <trkpt lat="41.390417" lon="0.810531">
        <ele>529.108</ele>
        <time>2019-04-29T01:09:00Z</time>
      </trkpt>
      <trkpt lat="41.390316" lon="0.810558">
        <ele>527.515</ele>
        <time>2019-04-29T01:09:20Z</time>
      </trkpt>
      <trkpt lat="41.390232" lon="0.810687">
        <ele>526.287</ele>
        <time>2019-04-29T01:09:40Z</time>
      </trkpt>
      <trkpt lat="41.390224" lon="0.810896">
        <ele>525.160</ele>
        <time>2019-04-29T01:10:00Z</time>
      </trkpt>
      <trkpt lat="41.390208" lon="0.811111">
        <ele>523.573</ele>
        <time>2019-04-29T01:10:20Z</time>
      </trkpt>
      <trkpt lat="41.390288" lon="0.811293">
        <ele>523.338</ele>
        <time>2019-04-29T01:10:40Z</time>
      </trkpt>
      <trkpt lat="41.390465" lon="0.811567">
        <ele>525.079</ele>
        <time>2019-04-29T01:11:00Z</time>
      </trkpt>
      <trkpt lat="41.390381" lon="0.811658">
        <ele>522.379</ele>
        <time>2019-04-29T01:11:20Z</time>
      </trkpt>
      <trkpt lat="41.390111" lon="0.811433">
        <ele>518.846</ele>
        <time>2019-04-29T01:11:40Z</time>
      </trkpt>
      <trkpt lat="41.389906" lon="0.811315">
        <ele>516.294</ele>
        <time>2019-04-29T01:12:00Z</time>
      </trkpt>
      <trkpt lat="41.389829" lon="0.811105">
        <ele>516.657</ele>
        <time>2019-04-29T01:12:20Z</time>
      </trkpt>
      <trkpt lat="41.389483" lon="0.811111">
        <ele>512.422</ele>
        <time>2019-04-29T01:12:40Z</time>
      </trkpt>
      <trkpt lat="41.388646" lon="0.810800">
        <ele>512.908</ele>
        <time>2019-04-29T01:13:00Z</time>
      </trkpt>
      <trkpt lat="41.388103" lon="0.810285">
        <ele>507.832</ele>
        <time>2019-04-29T01:13:20Z</time>
      </trkpt>
      <trkpt lat="41.387749" lon="0.809990">
        <ele>507.944</ele>
        <time>2019-04-29T01:13:40Z</time>
      </trkpt>
      <trkpt lat="41.387258" lon="0.810022">
        <ele>500.527</ele>
        <time>2019-04-29T01:14:00Z</time>
      </trkpt>
      <trkpt lat="41.387048" lon="0.809909">
        <ele>498.190</ele>
        <time>2019-04-29T01:14:20Z</time>
      </trkpt>
      <trkpt lat="41.386855" lon="0.809668">
        <ele>497.075</ele>
        <time>2019-04-29T01:14:40Z</time>
      </trkpt>
      <trkpt lat="41.386127" lon="0.808268">
        <ele>491.546</ele>
        <time>2019-04-29T01:15:00Z</time>
      </trkpt>
      <trkpt lat="41.386062" lon="0.807586">
        <ele>480.796</ele>
        <time>2019-04-29T01:15:20Z</time>
      </trkpt>
      <trkpt lat="41.386211" lon="0.806948">
        <ele>479.573</ele>
        <time>2019-04-29T01:15:40Z</time>
      </trkpt>
      <trkpt lat="41.386167" lon="0.806658">
        <ele>476.941</ele>
        <time>2019-04-29T01:16:00Z</time>
      </trkpt>
      <trkpt lat="41.386139" lon="0.806133">
        <ele>472.581</ele>
        <time>2019-04-29T01:16:20Z</time>
      </trkpt>
      <trkpt lat="41.386292" lon="0.805848">
        <ele>471.809</ele>
        <time>2019-04-29T01:16:40Z</time>
      </trkpt>
      <trkpt lat="41.387181" lon="0.805424">
        <ele>471.408</ele>
        <time>2019-04-29T01:17:00Z</time>
      </trkpt>
      <trkpt lat="41.387487" lon="0.805237">
        <ele>471.577</ele>
        <time>2019-04-29T01:17:20Z</time>
      </trkpt>
      <trkpt lat="41.387954" lon="0.804588">
        <ele>469.259</ele>
        <time>2019-04-29T01:17:40Z</time>
      </trkpt>
      <trkpt lat="41.388288" lon="0.804303">
        <ele>468.952</ele>
        <time>2019-04-29T01:18:00Z</time>
      </trkpt>
      <trkpt lat="41.388847" lon="0.803096">
        <ele>465.815</ele>
        <time>2019-04-29T01:18:20Z</time>
      </trkpt>
      <trkpt lat="41.389173" lon="0.802554">
        <ele>462.270</ele>
        <time>2019-04-29T01:18:40Z</time>
      </trkpt>
      <trkpt lat="41.389515" lon="0.802297">
        <ele>463.471</ele>
        <time>2019-04-29T01:19:00Z</time>
      </trkpt>
      <trkpt lat="41.389620" lon="0.802029">
        <ele>462.821</ele>
        <time>2019-04-29T01:19:20Z</time>
      </trkpt>
      <trkpt lat="41.389552" lon="0.801905">
        <ele>461.628</ele>
        <time>2019-04-29T01:19:40Z</time>
      </trkpt>
      <trkpt lat="41.389427" lon="0.801771">
        <ele>460.611</ele>
        <time>2019-04-29T01:20:00Z</time>
      </trkpt>
      <trkpt lat="41.389395" lon="0.801600">
        <ele>461.321</ele>
        <time>2019-04-29T01:20:20Z</time>
      </trkpt>
      <trkpt lat="41.389403" lon="0.801412">
        <ele>462.403</ele>
        <time>2019-04-29T01:20:40Z</time>
      </trkpt>
      <trkpt lat="41.389246" lon="0.801315">
        <ele>464.908</ele>
        <time>2019-04-29T01:21:00Z</time>
      </trkpt>
      <trkpt lat="41.389028" lon="0.801251">
        <ele>466.364</ele>
        <time>2019-04-29T01:21:20Z</time>
      </trkpt>
      <trkpt lat="41.388831" lon="0.801278">
        <ele>466.696</ele>
        <time>2019-04-29T01:21:40Z</time>
      </trkpt>
      <trkpt lat="41.388537" lon="0.801401">
        <ele>467.979</ele>
        <time>2019-04-29T01:22:00Z</time>
      </trkpt>
      <trkpt lat="41.388010" lon="0.801508">
        <ele>473.692</ele>
        <time>2019-04-29T01:22:20Z</time>
      </trkpt>
      <trkpt lat="41.387769" lon="0.801487">
        <ele>474.847</ele>
        <time>2019-04-29T01:22:40Z</time>
      </trkpt>
      <trkpt lat="41.387571" lon="0.801439">
        <ele>473.888</ele>
        <time>2019-04-29T01:23:00Z</time>
      </trkpt>
      <trkpt lat="41.387515" lon="0.801380">
        <ele>473.088</ele>
        <time>2019-04-29T01:23:20Z</time>
      </trkpt>
      <trkpt lat="41.387443" lon="0.801133">
        <ele>473.235</ele>
        <time>2019-04-29T01:23:40Z</time>
      </trkpt>
      <trkpt lat="41.387394" lon="0.800897">
        <ele>476.889</ele>
        <time>2019-04-29T01:24:00Z</time>
      </trkpt>
      <trkpt lat="41.386614" lon="0.800339">
        <ele>481.006</ele>
        <time>2019-04-29T01:24:20Z</time>
      </trkpt>
      <trkpt lat="41.386589" lon="0.800264">
        <ele>481.626</ele>
        <time>2019-04-29T01:24:40Z</time>
      </trkpt>
      <trkpt lat="41.386646" lon="0.799824">
        <ele>486.708</ele>
        <time>2019-04-29T01:25:00Z</time>
      </trkpt>
      <trkpt lat="41.386501" lon="0.799534">
        <ele>487.061</ele>
        <time>2019-04-29T01:25:20Z</time>
      </trkpt>
      <trkpt lat="41.386316" lon="0.799470">
        <ele>485.123</ele>
        <time>2019-04-29T01:25:40Z</time>
      </trkpt>
      <trkpt lat="41.385881" lon="0.799277">
        <ele>484.986</ele>
        <time>2019-04-29T01:26:00Z</time>
      </trkpt>
      <trkpt lat="41.385760" lon="0.798891">
        <ele>490.029</ele>
        <time>2019-04-29T01:26:20Z</time>
      </trkpt>
      <trkpt lat="41.385648" lon="0.798740">
        <ele>493.614</ele>
        <time>2019-04-29T01:26:40Z</time>
      </trkpt>
      <trkpt lat="41.385237" lon="0.798386">
        <ele>496.785</ele>
        <time>2019-04-29T01:27:00Z</time>
      </trkpt>
      <trkpt lat="41.384649" lon="0.797721">
        <ele>501.555</ele>
        <time>2019-04-29T01:27:20Z</time>
      </trkpt>
      <trkpt lat="41.384553" lon="0.797399">
        <ele>501.362</ele>
        <time>2019-04-29T01:27:40Z</time>
      </trkpt>
      <trkpt lat="41.384166" lon="0.796734">
        <ele>501.325</ele>
        <time>2019-04-29T01:28:00Z</time>
      </trkpt>
      <trkpt lat="41.384054" lon="0.796155">
        <ele>505.126</ele>
        <time>2019-04-29T01:28:20Z</time>
      </trkpt>
      <trkpt lat="41.383587" lon="0.795779">
        <ele>505.808</ele>
        <time>2019-04-29T01:28:40Z</time>
      </trkpt>
      <trkpt lat="41.383482" lon="0.795565">
        <ele>508.408</ele>
        <time>2019-04-29T01:29:00Z</time>
      </trkpt>
      <trkpt lat="41.383289" lon="0.794803">
        <ele>514.035</ele>
        <time>2019-04-29T01:29:20Z</time>
      </trkpt>
      <trkpt lat="41.383233" lon="0.794170">
        <ele>514.357</ele>
        <time>2019-04-29T01:29:40Z</time>
      </trkpt>
      <trkpt lat="41.382911" lon="0.793730">
        <ele>516.880</ele>
        <time>2019-04-29T01:30:00Z</time>
      </trkpt>
      <trkpt lat="41.382790" lon="0.793515">
        <ele>518.833</ele>
        <time>2019-04-29T01:30:20Z</time>
      </trkpt>
      <trkpt lat="41.382798" lon="0.793215">
        <ele>521.938</ele>
        <time>2019-04-29T01:30:40Z</time>
      </trkpt>
      <trkpt lat="41.382581" lon="0.792925">
        <ele>522.349</ele>
        <time>2019-04-29T01:31:00Z</time>
      </trkpt>
      <trkpt lat="41.382428" lon="0.792614">
        <ele>525.149</ele>
        <time>2019-04-29T01:31:20Z</time>
      </trkpt>
      <trkpt lat="41.382226" lon="0.792400">
        <ele>525.946</ele>
        <time>2019-04-29T01:31:40Z</time>
      </trkpt>
      <trkpt lat="41.381985" lon="0.792185">
        <ele>527.955</ele>
        <time>2019-04-29T01:32:00Z</time>
      </trkpt>
      <trkpt lat="41.381695" lon="0.792089">
        <ele>529.007</ele>
        <time>2019-04-29T01:32:20Z</time>
      </trkpt>
      <trkpt lat="41.381566" lon="0.792056">
        <ele>529.817</ele>
        <time>2019-04-29T01:32:40Z</time>
      </trkpt>
      <trkpt lat="41.381542" lon="0.791702">
        <ele>532.808</ele>
        <time>2019-04-29T01:33:00Z</time>
      </trkpt>
      <trkpt lat="41.381534" lon="0.791531">
        <ele>533.888</ele>
        <time>2019-04-29T01:33:20Z</time>
      </trkpt>
      <trkpt lat="41.381808" lon="0.791155">
        <ele>535.950</ele>
        <time>2019-04-29T01:33:40Z</time>
      </trkpt>
      <trkpt lat="41.381840" lon="0.790876">
        <ele>536.323</ele>
        <time>2019-04-29T01:34:00Z</time>
      </trkpt>
      <trkpt lat="41.380785" lon="0.789857">
        <ele>559.336</ele>
        <time>2019-04-29T01:34:20Z</time>
      </trkpt>
      <trkpt lat="41.380584" lon="0.789900">
        <ele>557.371</ele>
        <time>2019-04-29T01:34:40Z</time>
      </trkpt>
      <trkpt lat="41.380359" lon="0.790168">
        <ele>554.952</ele>
        <time>2019-04-29T01:35:00Z</time>
      </trkpt>
      <trkpt lat="41.380198" lon="0.790350">
        <ele>557.282</ele>
        <time>2019-04-29T01:35:20Z</time>
      </trkpt>
      <trkpt lat="41.379811" lon="0.790522">
        <ele>565.079</ele>
        <time>2019-04-29T01:35:40Z</time>
      </trkpt>
      <trkpt lat="41.379731" lon="0.790458">
        <ele>567.659</ele>
        <time>2019-04-29T01:36:00Z</time>
      </trkpt>
      <trkpt lat="41.379852" lon="0.790329">
        <ele>567.403</ele>
        <time>2019-04-29T01:36:20Z</time>
      </trkpt>
      <trkpt lat="41.380141" lon="0.790082">
        <ele>562.423</ele>
        <time>2019-04-29T01:36:40Z</time>
      </trkpt>
      <trkpt lat="41.380158" lon="0.789878">
        <ele>564.308</ele>
        <time>2019-04-29T01:37:00Z</time>
      </trkpt>
      <trkpt lat="41.380085" lon="0.789664">
        <ele>568.098</ele>
        <time>2019-04-29T01:37:20Z</time>
      </trkpt>
      <trkpt lat="41.379876" lon="0.789202">
        <ele>573.280</ele>
        <time>2019-04-29T01:37:40Z</time>
      </trkpt>
      <trkpt lat="41.380013" lon="0.788848">
        <ele>573.363</ele>
        <time>2019-04-29T01:38:00Z</time>
      </trkpt>
      <trkpt lat="41.379980" lon="0.788763">
        <ele>574.036</ele>
        <time>2019-04-29T01:38:20Z</time>
      </trkpt>
      <trkpt lat="41.379819" lon="0.788645">
        <ele>574.991</ele>
        <time>2019-04-29T01:38:40Z</time>
      </trkpt>
      <trkpt lat="41.378958" lon="0.787926">
        <ele>582.652</ele>
        <time>2019-04-29T01:39:00Z</time>
      </trkpt>
      <trkpt lat="41.378853" lon="0.787743">
        <ele>584.822</ele>
        <time>2019-04-29T01:39:20Z</time>
      </trkpt>
      <trkpt lat="41.378797" lon="0.787486">
        <ele>587.179</ele>
        <time>2019-04-29T01:39:40Z</time>
      </trkpt>
      <trkpt lat="41.378761" lon="0.787604">
        <ele>586.882</ele>
        <time>2019-04-29T01:40:00Z</time>
      </trkpt>
      <trkpt lat="41.378676" lon="0.787749">
        <ele>587.243</ele>
        <time>2019-04-29T01:40:20Z</time>
      </trkpt>
      <trkpt lat="41.378366" lon="0.788022">
        <ele>591.617</ele>
        <time>2019-04-29T01:40:40Z</time>
      </trkpt>
      <trkpt lat="41.378225" lon="0.788215">
        <ele>590.408</ele>
        <time>2019-04-29T01:41:00Z</time>
      </trkpt>
      <trkpt lat="41.378089" lon="0.788312">
        <ele>589.391</ele>
        <time>2019-04-29T01:41:20Z</time>
      </trkpt>
      <trkpt lat="41.377952" lon="0.788258">
        <ele>589.583</ele>
        <time>2019-04-29T01:41:40Z</time>
      </trkpt>
      <trkpt lat="41.377485" lon="0.787877">
        <ele>588.766</ele>
        <time>2019-04-29T01:42:00Z</time>
      </trkpt>
      <trkpt lat="41.377453" lon="0.787802">
        <ele>588.979</ele>
        <time>2019-04-29T01:42:20Z</time>
      </trkpt>
      <trkpt lat="41.377469" lon="0.787609">
        <ele>590.734</ele>
        <time>2019-04-29T01:42:40Z</time>
      </trkpt>
      <trkpt lat="41.377509" lon="0.787287">
        <ele>594.515</ele>
        <time>2019-04-29T01:43:00Z</time>
      </trkpt>
      <trkpt lat="41.377127" lon="0.786960">
        <ele>595.765</ele>
        <time>2019-04-29T01:43:20Z</time>
      </trkpt>
      <trkpt lat="41.377062" lon="0.786928">
        <ele>596.442</ele>
        <time>2019-04-29T01:43:40Z</time>
      </trkpt>
      <trkpt lat="41.376978" lon="0.786928">
        <ele>596.453</ele>
        <time>2019-04-29T01:44:00Z</time>
      </trkpt>
      <trkpt lat="41.376905" lon="0.786987">
        <ele>596.204</ele>
        <time>2019-04-29T01:44:20Z</time>
      </trkpt>
      <trkpt lat="41.376869" lon="0.787067">
        <ele>595.614</ele>
        <time>2019-04-29T01:44:40Z</time>
      </trkpt>
      <trkpt lat="41.376837" lon="0.787153">
        <ele>594.708</ele>
        <time>2019-04-29T01:45:00Z</time>
      </trkpt>
      <trkpt lat="41.376809" lon="0.787234">
        <ele>593.738</ele>
        <time>2019-04-29T01:45:20Z</time>
      </trkpt>
      <trkpt lat="41.376752" lon="0.787341">
        <ele>593.090</ele>
        <time>2019-04-29T01:45:40Z</time>
      </trkpt>
      <trkpt lat="41.376619" lon="0.787480">
        <ele>593.183</ele>
        <time>2019-04-29T01:46:00Z</time>
      </trkpt>
      <trkpt lat="41.376483" lon="0.787545">
        <ele>593.856</ele>
        <time>2019-04-29T01:46:20Z</time>
      </trkpt>
      <trkpt lat="41.376265" lon="0.787539">
        <ele>596.041</ele>
        <time>2019-04-29T01:46:40Z</time>
      </trkpt>
      <trkpt lat="41.376146" lon="0.787529">
        <ele>597.112</ele>
        <time>2019-04-29T01:47:00Z</time>
      </trkpt>
      <trkpt lat="41.376006" lon="0.787703">
        <ele>594.442</ele>
        <time>2019-04-29T01:47:20Z</time>
      </trkpt>
      <trkpt lat="41.375810" lon="0.787931">
        <ele>594.889</ele>
        <time>2019-04-29T01:47:40Z</time>
      </trkpt>
      <trkpt lat="41.375679" lon="0.788162">
        <ele>592.667</ele>
        <time>2019-04-29T01:48:00Z</time>
      </trkpt>
      <trkpt lat="41.375589" lon="0.788103">
        <ele>592.081</ele>
        <time>2019-04-29T01:48:20Z</time>
      </trkpt>
      <trkpt lat="41.375520" lon="0.787751">
        <ele>593.619</ele>
        <time>2019-04-29T01:48:40Z</time>
      </trkpt>
      <trkpt lat="41.375331" lon="0.787341">
        <ele>595.408</ele>
        <time>2019-04-29T01:49:00Z</time>
      </trkpt>
      <trkpt lat="41.375249" lon="0.787140">
        <ele>596.849</ele>
        <time>2019-04-29T01:49:20Z</time>
      </trkpt>
      <trkpt lat="41.375251" lon="0.786925">
        <ele>599.871</ele>
        <time>2019-04-29T01:49:40Z</time>
      </trkpt>
      <trkpt lat="41.375347" lon="0.786488">
        <ele>606.254</ele>
        <time>2019-04-29T01:50:00Z</time>
      </trkpt>
      <trkpt lat="41.375333" lon="0.786239">
        <ele>608.427</ele>
        <time>2019-04-29T01:50:20Z</time>
      </trkpt>
      <trkpt lat="41.375339" lon="0.786021">
        <ele>610.172</ele>
        <time>2019-04-29T01:50:40Z</time>
      </trkpt>
      <trkpt lat="41.375374" lon="0.785852">
        <ele>610.943</ele>
        <time>2019-04-29T01:51:00Z</time>
      </trkpt>
      <trkpt lat="41.375327" lon="0.785632">
        <ele>612.313</ele>
        <time>2019-04-29T01:51:20Z</time>
      </trkpt>
      <trkpt lat="41.375098" lon="0.785547">
        <ele>612.420</ele>
        <time>2019-04-29T01:51:40Z</time>
      </trkpt>
      <trkpt lat="41.374929" lon="0.785539">
        <ele>612.424</ele>
        <time>2019-04-29T01:52:00Z</time>
      </trkpt>
      <trkpt lat="41.374462" lon="0.785855">
        <ele>611.404</ele>
        <time>2019-04-29T01:52:20Z</time>
      </trkpt>
      <trkpt lat="41.374297" lon="0.785925">
        <ele>613.414</ele>
        <time>2019-04-29T01:52:40Z</time>
      </trkpt>
      <trkpt lat="41.373987" lon="0.786214">
        <ele>611.508</ele>
        <time>2019-04-29T01:53:00Z</time>
      </trkpt>
      <trkpt lat="41.373802" lon="0.786193">
        <ele>613.265</ele>
        <time>2019-04-29T01:53:20Z</time>
      </trkpt>
      <trkpt lat="41.373556" lon="0.786306">
        <ele>613.467</ele>
        <time>2019-04-29T01:53:40Z</time>
      </trkpt>
      <trkpt lat="41.373355" lon="0.786703">
        <ele>614.640</ele>
        <time>2019-04-29T01:54:00Z</time>
      </trkpt>
      <trkpt lat="41.373162" lon="0.786992">
        <ele>615.733</ele>
        <time>2019-04-29T01:54:20Z</time>
      </trkpt>
      <trkpt lat="41.372845" lon="0.787108">
        <ele>615.388</ele>
        <time>2019-04-29T01:54:40Z</time>
      </trkpt>
      <trkpt lat="41.372691" lon="0.787102">
        <ele>614.449</ele>
        <time>2019-04-29T01:55:00Z</time>
      </trkpt>
      <trkpt lat="41.372457" lon="0.787121">
        <ele>613.149</ele>
        <time>2019-04-29T01:55:20Z</time>
      </trkpt>
      <trkpt lat="41.372399" lon="0.787156">
        <ele>613.156</ele>
        <time>2019-04-29T01:55:40Z</time>
      </trkpt>
      <trkpt lat="41.372346" lon="0.787239">
        <ele>613.721</ele>
        <time>2019-04-29T01:56:00Z</time>
      </trkpt>
      <trkpt lat="41.372260" lon="0.787231">
        <ele>613.341</ele>
        <time>2019-04-29T01:56:20Z</time>
      </trkpt>
      <trkpt lat="41.372195" lon="0.787180">
        <ele>612.305</ele>
        <time>2019-04-29T01:56:40Z</time>
      </trkpt>
      <trkpt lat="41.372215" lon="0.787057">
        <ele>611.208</ele>
        <time>2019-04-29T01:57:00Z</time>
      </trkpt>
      <trkpt lat="41.372220" lon="0.786636">
        <ele>611.165</ele>
        <time>2019-04-29T01:57:20Z</time>
      </trkpt>
      <trkpt lat="41.372079" lon="0.786341">
        <ele>610.067</ele>
        <time>2019-04-29T01:57:40Z</time>
      </trkpt>
      <trkpt lat="41.371726" lon="0.786080">
        <ele>605.880</ele>
        <time>2019-04-29T01:58:00Z</time>
      </trkpt>
      <trkpt lat="41.371652" lon="0.785952">
        <ele>605.413</ele>
        <time>2019-04-29T01:58:20Z</time>
      </trkpt>
      <trkpt lat="41.371481" lon="0.785775">
        <ele>604.338</ele>
        <time>2019-04-29T01:58:40Z</time>
      </trkpt>
      <trkpt lat="41.371374" lon="0.785640">
        <ele>603.459</ele>
        <time>2019-04-29T01:59:00Z</time>
      </trkpt>
      <trkpt lat="41.371249" lon="0.785056">
        <ele>602.799</ele>
        <time>2019-04-29T01:59:20Z</time>
      </trkpt>
      <trkpt lat="41.371096" lon="0.784903">
        <ele>600.026</ele>
        <time>2019-04-29T01:59:40Z</time>
      </trkpt>
      <trkpt lat="41.370875" lon="0.784825">
        <ele>595.237</ele>
        <time>2019-04-29T02:00:00Z</time>
      </trkpt>
      <trkpt lat="41.370752" lon="0.784844">
        <ele>593.449</ele>
        <time>2019-04-29T02:00:20Z</time>
      </trkpt>
      <trkpt lat="41.370575" lon="0.784847">
        <ele>591.213</ele>
        <time>2019-04-29T02:00:40Z</time>
      </trkpt>
      <trkpt lat="41.370406" lon="0.784793">
        <ele>588.408</ele>
        <time>2019-04-29T02:01:00Z</time>
      </trkpt>
      <trkpt lat="41.370350" lon="0.784683">
        <ele>587.026</ele>
        <time>2019-04-29T02:01:20Z</time>
      </trkpt>
      <trkpt lat="41.370358" lon="0.784503">
        <ele>585.688</ele>
        <time>2019-04-29T02:01:40Z</time>
      </trkpt>
      <trkpt lat="41.370408" lon="0.784307">
        <ele>585.481</ele>
        <time>2019-04-29T02:02:00Z</time>
      </trkpt>
      <trkpt lat="41.370386" lon="0.783908">
        <ele>584.244</ele>
        <time>2019-04-29T02:02:20Z</time>
      </trkpt>
      <trkpt lat="41.370311" lon="0.783358">
        <ele>582.479</ele>
        <time>2019-04-29T02:02:40Z</time>
      </trkpt>
      <trkpt lat="41.370203" lon="0.783103">
        <ele>580.990</ele>
        <time>2019-04-29T02:03:00Z</time>
      </trkpt>
      <trkpt lat="41.370136" lon="0.782883">
        <ele>577.580</ele>
        <time>2019-04-29T02:03:20Z</time>
      </trkpt>
      <trkpt lat="41.370142" lon="0.782671">
        <ele>574.577</ele>
        <time>2019-04-29T02:03:40Z</time>
      </trkpt>
      <trkpt lat="41.370215" lon="0.782475">
        <ele>572.969</ele>
        <time>2019-04-29T02:04:00Z</time>
      </trkpt>
      <trkpt lat="41.370368" lon="0.782205">
        <ele>572.404</ele>
        <time>2019-04-29T02:04:20Z</time>
      </trkpt>
      <trkpt lat="41.370525" lon="0.781969">
        <ele>570.224</ele>
        <time>2019-04-29T02:04:40Z</time>
      </trkpt>
      <trkpt lat="41.370714" lon="0.781859">
        <ele>569.308</ele>
        <time>2019-04-29T02:05:00Z</time>
      </trkpt>
      <trkpt lat="41.370629" lon="0.781810">
        <ele>568.369</ele>
        <time>2019-04-29T02:05:20Z</time>
      </trkpt>
      <trkpt lat="41.370492" lon="0.781810">
        <ele>567.741</ele>
        <time>2019-04-29T02:05:40Z</time>
      </trkpt>
      <trkpt lat="41.370295" lon="0.781875">
        <ele>567.844</ele>
        <time>2019-04-29T02:06:00Z</time>
      </trkpt>
      <trkpt lat="41.370154" lon="0.781746">
        <ele>564.367</ele>
        <time>2019-04-29T02:06:20Z</time>
      </trkpt>
      <trkpt lat="41.369760" lon="0.781236">
        <ele>561.932</ele>
        <time>2019-04-29T02:06:40Z</time>
      </trkpt>
      <trkpt lat="41.369788" lon="0.781022">
        <ele>562.593</ele>
        <time>2019-04-29T02:07:00Z</time>
      </trkpt>
      <trkpt lat="41.369671" lon="0.780576">
        <ele>564.083</ele>
        <time>2019-04-29T02:07:20Z</time>
      </trkpt>
      <trkpt lat="41.368943" lon="0.779836">
        <ele>583.340</ele>
        <time>2019-04-29T02:07:40Z</time>
      </trkpt>
      <trkpt lat="41.368902" lon="0.779447">
        <ele>592.422</ele>
        <time>2019-04-29T02:08:00Z</time>
      </trkpt>
      <trkpt lat="41.368983" lon="0.778806">
        <ele>596.462</ele>
        <time>2019-04-29T02:08:20Z</time>
      </trkpt>
      <trkpt lat="41.369204" lon="0.778460">
        <ele>598.408</ele>
        <time>2019-04-29T02:08:40Z</time>
      </trkpt>
      <trkpt lat="41.369271" lon="0.778313">
        <ele>599.308</ele>
        <time>2019-04-29T02:09:00Z</time>
      </trkpt>
      <trkpt lat="41.369100" lon="0.778002">
        <ele>602.485</ele>
        <time>2019-04-29T02:09:20Z</time>
      </trkpt>
      <trkpt lat="41.370070" lon="0.776510">
        <ele>591.817</ele>
        <time>2019-04-29T02:09:40Z</time>
      </trkpt>
      <trkpt lat="41.370138" lon="0.776296">
        <ele>591.230</ele>
        <time>2019-04-29T02:10:00Z</time>
      </trkpt>
      <trkpt lat="41.370340" lon="0.776060">
        <ele>589.063</ele>
        <time>2019-04-29T02:10:20Z</time>
      </trkpt>
      <trkpt lat="41.370545" lon="0.775888">
        <ele>587.138</ele>
        <time>2019-04-29T02:10:40Z</time>
      </trkpt>
      <trkpt lat="41.370855" lon="0.775700">
        <ele>581.689</ele>
        <time>2019-04-29T02:11:00Z</time>
      </trkpt>
      <trkpt lat="41.370931" lon="0.775453">
        <ele>580.049</ele>
        <time>2019-04-29T02:11:20Z</time>
      </trkpt>
      <trkpt lat="41.371145" lon="0.775234">
        <ele>576.496</ele>
        <time>2019-04-29T02:11:40Z</time>
      </trkpt>
      <trkpt lat="41.370976" lon="0.774558">
        <ele>567.745</ele>
        <time>2019-04-29T02:12:00Z</time>
      </trkpt>
      <trkpt lat="41.370480" lon="0.774364">
        <ele>560.447</ele>
        <time>2019-04-29T02:12:20Z</time>
      </trkpt>
      <trkpt lat="41.370295" lon="0.774402">
        <ele>559.811</ele>
        <time>2019-04-29T02:12:40Z</time>
      </trkpt>
      <trkpt lat="41.369820" lon="0.774896">
        <ele>564.008</ele>
        <time>2019-04-29T02:13:00Z</time>
      </trkpt>
      <trkpt lat="41.369546" lon="0.775185">
        <ele>565.617</ele>
        <time>2019-04-29T02:13:20Z</time>
      </trkpt>
      <trkpt lat="41.369261" lon="0.775298">
        <ele>563.879</ele>
        <time>2019-04-29T02:13:40Z</time>
      </trkpt>
      <trkpt lat="41.369003" lon="0.775496">
        <ele>564.452</ele>
        <time>2019-04-29T02:14:00Z</time>
      </trkpt>
      <trkpt lat="41.368794" lon="0.775775">
        <ele>563.485</ele>
        <time>2019-04-29T02:14:20Z</time>
      </trkpt>
      <trkpt lat="41.368359" lon="0.776414">
        <ele>559.210</ele>
        <time>2019-04-29T02:14:40Z</time>
      </trkpt>
      <trkpt lat="41.368214" lon="0.776253">
        <ele>557.271</ele>
        <time>2019-04-29T02:15:00Z</time>
      </trkpt>
      <trkpt lat="41.367717" lon="0.775665">
        <ele>559.951</ele>
        <time>2019-04-29T02:15:20Z</time>
      </trkpt>
      <trkpt lat="41.368113" lon="0.774622">
        <ele>558.818</ele>
        <time>2019-04-29T02:15:40Z</time>
      </trkpt>
      <trkpt lat="41.368097" lon="0.774043">
        <ele>567.272</ele>
        <time>2019-04-29T02:16:00Z</time>
      </trkpt>
      <trkpt lat="41.368629" lon="0.773592">
        <ele>569.113</ele>
        <time>2019-04-29T02:16:20Z</time>
      </trkpt>
      <trkpt lat="41.368564" lon="0.773485">
        <ele>573.114</ele>
        <time>2019-04-29T02:16:40Z</time>
      </trkpt>
      <trkpt lat="41.367759" lon="0.773721">
        <ele>584.808</ele>
        <time>2019-04-29T02:17:00Z</time>
      </trkpt>
      <trkpt lat="41.367582" lon="0.773935">
        <ele>581.920</ele>
        <time>2019-04-29T02:17:20Z</time>
      </trkpt>
      <trkpt lat="41.367276" lon="0.773807">
        <ele>588.032</ele>
        <time>2019-04-29T02:17:40Z</time>
      </trkpt>
      <trkpt lat="41.366277" lon="0.774515">
        <ele>592.525</ele>
        <time>2019-04-29T02:18:00Z</time>
      </trkpt>
      <trkpt lat="41.364909" lon="0.773120">
        <ele>594.248</ele>
        <time>2019-04-29T02:18:20Z</time>
      </trkpt>
      <trkpt lat="41.364345" lon="0.772798">
        <ele>597.463</ele>
        <time>2019-04-29T02:18:40Z</time>
      </trkpt>
      <trkpt lat="41.363991" lon="0.772519">
        <ele>595.844</ele>
        <time>2019-04-29T02:19:00Z</time>
      </trkpt>
      <trkpt lat="41.363894" lon="0.772219">
        <ele>594.094</ele>
        <time>2019-04-29T02:19:20Z</time>
      </trkpt>
      <trkpt lat="41.363395" lon="0.771832">
        <ele>594.011</ele>
        <time>2019-04-29T02:19:40Z</time>
      </trkpt>
      <trkpt lat="41.363395" lon="0.771425">
        <ele>591.019</ele>
        <time>2019-04-29T02:20:00Z</time>
      </trkpt>
      <trkpt lat="41.363008" lon="0.770931">
        <ele>586.009</ele>
        <time>2019-04-29T02:20:20Z</time>
      </trkpt>
      <trkpt lat="41.362702" lon="0.770802">
        <ele>586.119</ele>
        <time>2019-04-29T02:20:40Z</time>
      </trkpt>
      <trkpt lat="41.362090" lon="0.770330">
        <ele>589.308</ele>
        <time>2019-04-29T02:21:00Z</time>
      </trkpt>
      <trkpt lat="41.362316" lon="0.770030">
        <ele>588.614</ele>
        <time>2019-04-29T02:21:20Z</time>
      </trkpt>
      <trkpt lat="41.362283" lon="0.769365">
        <ele>588.146</ele>
        <time>2019-04-29T02:21:40Z</time>
      </trkpt>
      <trkpt lat="41.362477" lon="0.768957">
        <ele>584.729</ele>
        <time>2019-04-29T02:22:00Z</time>
      </trkpt>
      <trkpt lat="41.362251" lon="0.768549">
        <ele>585.032</ele>
        <time>2019-04-29T02:22:20Z</time>
      </trkpt>
      <trkpt lat="41.362300" lon="0.768099">
        <ele>587.047</ele>
        <time>2019-04-29T02:22:40Z</time>
      </trkpt>
      <trkpt lat="41.362251" lon="0.767670">
        <ele>588.038</ele>
        <time>2019-04-29T02:23:00Z</time>
      </trkpt>
      <trkpt lat="41.362589" lon="0.766683">
        <ele>591.668</ele>
        <time>2019-04-29T02:23:20Z</time>
      </trkpt>
      <trkpt lat="41.362638" lon="0.765803">
        <ele>593.895</ele>
        <time>2019-04-29T02:23:40Z</time>
      </trkpt>
      <trkpt lat="41.363057" lon="0.764966">
        <ele>592.292</ele>
        <time>2019-04-29T02:24:00Z</time>
      </trkpt>
      <trkpt lat="41.363507" lon="0.763958">
        <ele>596.373</ele>
        <time>2019-04-29T02:24:20Z</time>
      </trkpt>
      <trkpt lat="41.363717" lon="0.763378">
        <ele>595.120</ele>
        <time>2019-04-29T02:24:40Z</time>
      </trkpt>
      <trkpt lat="41.363765" lon="0.762992">
        <ele>594.308</ele>
        <time>2019-04-29T02:25:00Z</time>
      </trkpt>
      <trkpt lat="41.363991" lon="0.762756">
        <ele>592.392</ele>
        <time>2019-04-29T02:25:20Z</time>
      </trkpt>
      <trkpt lat="41.364909" lon="0.762305">
        <ele>585.564</ele>
        <time>2019-04-29T02:25:40Z</time>
      </trkpt>
      <trkpt lat="41.364925" lon="0.761769">
        <ele>585.817</ele>
        <time>2019-04-29T02:26:00Z</time>
      </trkpt>
      <trkpt lat="41.365488" lon="0.760953">
        <ele>586.850</ele>
        <time>2019-04-29T02:26:20Z</time>
      </trkpt>
      <trkpt lat="41.365472" lon="0.760245">
        <ele>578.925</ele>
        <time>2019-04-29T02:26:40Z</time>
      </trkpt>
      <trkpt lat="41.365859" lon="0.759323">
        <ele>577.366</ele>
        <time>2019-04-29T02:27:00Z</time>
      </trkpt>
      <trkpt lat="41.366487" lon="0.758958">
        <ele>581.236</ele>
        <time>2019-04-29T02:27:20Z</time>
      </trkpt>
      <trkpt lat="41.366954" lon="0.758014">
        <ele>574.733</ele>
        <time>2019-04-29T02:27:40Z</time>
      </trkpt>
      <trkpt lat="41.367517" lon="0.758014">
        <ele>574.839</ele>
        <time>2019-04-29T02:28:00Z</time>
      </trkpt>
      <trkpt lat="41.367727" lon="0.757563">
        <ele>574.001</ele>
        <time>2019-04-29T02:28:20Z</time>
      </trkpt>
      <trkpt lat="41.367936" lon="0.757091">
        <ele>572.321</ele>
        <time>2019-04-29T02:28:40Z</time>
      </trkpt>
      <trkpt lat="41.367856" lon="0.756555">
        <ele>566.808</ele>
        <time>2019-04-29T02:29:00Z</time>
      </trkpt>
      <trkpt lat="41.368935" lon="0.755868">
        <ele>565.976</ele>
        <time>2019-04-29T02:29:20Z</time>
      </trkpt>
      <trkpt lat="41.369579" lon="0.756147">
        <ele>571.678</ele>
        <time>2019-04-29T02:29:40Z</time>
      </trkpt>
      <trkpt lat="41.369724" lon="0.755696">
        <ele>569.521</ele>
        <time>2019-04-29T02:30:00Z</time>
      </trkpt>
      <trkpt lat="41.371012" lon="0.754774">
        <ele>562.734</ele>
        <time>2019-04-29T02:30:20Z</time>
      </trkpt>
      <trkpt lat="41.371108" lon="0.754023">
        <ele>560.519</ele>
        <time>2019-04-29T02:30:40Z</time>
      </trkpt>
      <trkpt lat="41.371076" lon="0.753357">
        <ele>556.940</ele>
        <time>2019-04-29T02:31:00Z</time>
      </trkpt>
      <trkpt lat="41.371914" lon="0.752392">
        <ele>554.640</ele>
        <time>2019-04-29T02:31:20Z</time>
      </trkpt>
      <trkpt lat="41.372928" lon="0.752327">
        <ele>550.297</ele>
        <time>2019-04-29T02:31:40Z</time>
      </trkpt>
      <trkpt lat="41.373798" lon="0.751984">
        <ele>546.649</ele>
        <time>2019-04-29T02:32:00Z</time>
      </trkpt>
      <trkpt lat="41.375070" lon="0.751619">
        <ele>541.102</ele>
        <time>2019-04-29T02:32:20Z</time>
      </trkpt>
      <trkpt lat="41.375810" lon="0.751276">
        <ele>540.522</ele>
        <time>2019-04-29T02:32:40Z</time>
      </trkpt>
      <trkpt lat="41.376165" lon="0.750611">
        <ele>536.408</ele>
        <time>2019-04-29T02:33:00Z</time>
      </trkpt>
      <trkpt lat="41.376084" lon="0.750203">
        <ele>538.587</ele>
        <time>2019-04-29T02:33:20Z</time>
      </trkpt>
      <trkpt lat="41.376921" lon="0.749538">
        <ele>539.469</ele>
        <time>2019-04-29T02:33:40Z</time>
      </trkpt>
      <trkpt lat="41.377195" lon="0.748916">
        <ele>539.072</ele>
        <time>2019-04-29T02:34:00Z</time>
      </trkpt>
      <trkpt lat="41.377276" lon="0.748250">
        <ele>538.275</ele>
        <time>2019-04-29T02:34:20Z</time>
      </trkpt>
      <trkpt lat="41.377839" lon="0.746148">
        <ele>530.470</ele>
        <time>2019-04-29T02:34:40Z</time>
      </trkpt>
      <trkpt lat="41.378467" lon="0.744689">
        <ele>529.541</ele>
        <time>2019-04-29T02:35:00Z</time>
      </trkpt>
      <trkpt lat="41.378547" lon="0.744045">
        <ele>528.461</ele>
        <time>2019-04-29T02:35:20Z</time>
      </trkpt>
      <trkpt lat="41.379224" lon="0.742714">
        <ele>526.278</ele>
        <time>2019-04-29T02:35:40Z</time>
      </trkpt>
      <trkpt lat="41.380834" lon="0.741727">
        <ele>521.419</ele>
        <time>2019-04-29T02:36:00Z</time>
      </trkpt>
      <trkpt lat="41.381107" lon="0.741041">
        <ele>519.209</ele>
        <time>2019-04-29T02:36:20Z</time>
      </trkpt>
      <trkpt lat="41.381075" lon="0.740483">
        <ele>520.619</ele>
        <time>2019-04-29T02:36:40Z</time>
      </trkpt>
      <trkpt lat="41.381639" lon="0.740118">
        <ele>519.908</ele>
        <time>2019-04-29T02:37:00Z</time>
      </trkpt>
      <trkpt lat="41.382202" lon="0.739260">
        <ele>518.264</ele>
        <time>2019-04-29T02:37:20Z</time>
      </trkpt>
      <trkpt lat="41.383313" lon="0.738895">
        <ele>521.156</ele>
        <time>2019-04-29T02:37:40Z</time>
      </trkpt>
      <trkpt lat="41.384311" lon="0.738423">
        <ele>524.599</ele>
        <time>2019-04-29T02:38:00Z</time>
      </trkpt>
      <trkpt lat="41.385084" lon="0.737479">
        <ele>528.192</ele>
        <time>2019-04-29T02:38:20Z</time>
      </trkpt>
      <trkpt lat="41.385921" lon="0.736749">
        <ele>524.167</ele>
        <time>2019-04-29T02:38:40Z</time>
      </trkpt>
      <trkpt lat="41.386420" lon="0.736084">
        <ele>514.828</ele>
        <time>2019-04-29T02:39:00Z</time>
      </trkpt>
      <trkpt lat="41.386823" lon="0.734410">
        <ele>516.478</ele>
        <time>2019-04-29T02:39:20Z</time>
      </trkpt>
      <trkpt lat="41.387225" lon="0.733831">
        <ele>517.265</ele>
        <time>2019-04-29T02:39:40Z</time>
      </trkpt>
      <trkpt lat="41.387885" lon="0.732908">
        <ele>515.243</ele>
        <time>2019-04-29T02:40:00Z</time>
      </trkpt>
      <trkpt lat="41.387982" lon="0.731127">
        <ele>514.764</ele>
        <time>2019-04-29T02:40:20Z</time>
      </trkpt>
      <trkpt lat="41.388964" lon="0.730054">
        <ele>507.410</ele>
        <time>2019-04-29T02:40:40Z</time>
      </trkpt>
      <trkpt lat="41.390026" lon="0.729239">
        <ele>501.108</ele>
        <time>2019-04-29T02:41:00Z</time>
      </trkpt>
      <trkpt lat="41.390268" lon="0.728359">
        <ele>504.297</ele>
        <time>2019-04-29T02:41:20Z</time>
      </trkpt>
      <trkpt lat="41.390461" lon="0.726964">
        <ele>509.499</ele>
        <time>2019-04-29T02:41:40Z</time>
      </trkpt>
      <trkpt lat="41.390534" lon="0.726782">
        <ele>508.482</ele>
        <time>2019-04-29T02:42:00Z</time>
      </trkpt>
      <trkpt lat="41.390723" lon="0.726165">
        <ele>502.995</ele>
        <time>2019-04-29T02:42:20Z</time>
      </trkpt>
      <trkpt lat="41.390920" lon="0.725736">
        <ele>501.640</ele>
        <time>2019-04-29T02:42:40Z</time>
      </trkpt>
      <trkpt lat="41.391226" lon="0.725457">
        <ele>501.751</ele>
        <time>2019-04-29T02:43:00Z</time>
      </trkpt>
      <trkpt lat="41.392031" lon="0.725511">
        <ele>494.481</ele>
        <time>2019-04-29T02:43:20Z</time>
      </trkpt>
      <trkpt lat="41.392481" lon="0.725060">
        <ele>491.968</ele>
        <time>2019-04-29T02:43:40Z</time>
      </trkpt>
      <trkpt lat="41.392695" lon="0.724674">
        <ele>492.574</ele>
        <time>2019-04-29T02:44:00Z</time>
      </trkpt>
      <trkpt lat="41.392880" lon="0.724213">
        <ele>492.856</ele>
        <time>2019-04-29T02:44:20Z</time>
      </trkpt>
      <trkpt lat="41.393105" lon="0.723639">
        <ele>490.721</ele>
        <time>2019-04-29T02:44:40Z</time>
      </trkpt>
      <trkpt lat="41.393246" lon="0.722802">
        <ele>490.408</ele>
        <time>2019-04-29T02:45:00Z</time>
      </trkpt>
      <trkpt lat="41.393532" lon="0.721965">
        <ele>485.970</ele>
        <time>2019-04-29T02:45:20Z</time>
      </trkpt>
      <trkpt lat="41.393805" lon="0.721407">
        <ele>485.442</ele>
        <time>2019-04-29T02:45:40Z</time>
      </trkpt>
      <trkpt lat="41.393954" lon="0.721074">
        <ele>486.965</ele>
        <time>2019-04-29T02:46:00Z</time>
      </trkpt>
      <trkpt lat="41.394131" lon="0.720790">
        <ele>485.258</ele>
        <time>2019-04-29T02:46:20Z</time>
      </trkpt>
      <trkpt lat="41.394361" lon="0.720286">
        <ele>478.993</ele>
        <time>2019-04-29T02:46:40Z</time>
      </trkpt>
      <trkpt lat="41.394353" lon="0.720007">
        <ele>477.744</ele>
        <time>2019-04-29T02:47:00Z</time>
      </trkpt>
      <trkpt lat="41.394252" lon="0.719674">
        <ele>474.584</ele>
        <time>2019-04-29T02:47:20Z</time>
      </trkpt>
      <trkpt lat="41.394840" lon="0.721729">
        <ele>467.549</ele>
        <time>2019-04-28T23:09:41Z</time>
      </trkpt>
      <trkpt lat="41.394325" lon="0.721090">
        <ele>479.702</ele>
        <time>2019-04-28T23:10:01Z</time>
      </trkpt>
      <trkpt lat="41.394369" lon="0.720908">
        <ele>479.622</ele>
        <time>2019-04-28T23:10:21Z</time>
      </trkpt>
      <trkpt lat="41.394276" lon="0.720785">
        <ele>482.108</ele>
        <time>2019-04-28T23:10:41Z</time>
      </trkpt>
      <trkpt lat="41.394381" lon="0.720388">
        <ele>479.087</ele>
        <time>2019-04-28T23:11:01Z</time>
      </trkpt>
      <trkpt lat="41.394268" lon="0.719712">
        <ele>474.989</ele>
        <time>2019-04-28T23:11:21Z</time>
      </trkpt>
      <trkpt lat="41.393705" lon="0.719798">
        <ele>477.142</ele>
        <time>2019-04-28T23:11:41Z</time>
      </trkpt>
      <trkpt lat="41.393318" lon="0.720173">
        <ele>479.885</ele>
        <time>2019-04-28T23:12:01Z</time>
      </trkpt>
      <trkpt lat="41.393206" lon="0.720388">
        <ele>481.941</ele>
        <time>2019-04-28T23:12:21Z</time>
      </trkpt>
      <trkpt lat="41.392884" lon="0.720420">
        <ele>479.492</ele>
        <time>2019-04-28T23:12:41Z</time>
      </trkpt>
      <trkpt lat="41.392683" lon="0.720645">
        <ele>480.111</ele>
        <time>2019-04-28T23:13:01Z</time>
      </trkpt>
      <trkpt lat="41.392514" lon="0.720838">
        <ele>480.530</ele>
        <time>2019-04-28T23:13:21Z</time>
      </trkpt>
      <trkpt lat="41.392409" lon="0.721107">
        <ele>486.336</ele>
        <time>2019-04-28T23:13:41Z</time>
      </trkpt>
      <trkpt lat="41.391950" lon="0.721858">
        <ele>491.917</ele>
        <time>2019-04-28T23:14:01Z</time>
      </trkpt>
      <trkpt lat="41.391789" lon="0.722136">
        <ele>495.518</ele>
        <time>2019-04-28T23:14:21Z</time>
      </trkpt>
      <trkpt lat="41.391604" lon="0.722287">
        <ele>495.708</ele>
        <time>2019-04-28T23:14:41Z</time>
      </trkpt>
      <trkpt lat="41.391419" lon="0.722351">
        <ele>494.396</ele>
        <time>2019-04-28T23:15:01Z</time>
      </trkpt>
      <trkpt lat="41.391081" lon="0.722287">
        <ele>490.858</ele>
        <time>2019-04-28T23:15:21Z</time>
      </trkpt>
      <trkpt lat="41.390952" lon="0.722319">
        <ele>490.651</ele>
        <time>2019-04-28T23:15:41Z</time>
      </trkpt>
      <trkpt lat="41.390920" lon="0.722587">
        <ele>497.284</ele>
        <time>2019-04-28T23:16:01Z</time>
      </trkpt>
      <trkpt lat="41.390767" lon="0.723413">
        <ele>500.950</ele>
        <time>2019-04-28T23:16:21Z</time>
      </trkpt>
      <trkpt lat="41.390534" lon="0.724636">
        <ele>504.951</ele>
        <time>2019-04-28T23:16:41Z</time>
      </trkpt>
      <trkpt lat="41.390018" lon="0.725355">
        <ele>505.840</ele>
        <time>2019-04-28T23:17:01Z</time>
      </trkpt>
      <trkpt lat="41.389439" lon="0.725656">
        <ele>501.489</ele>
        <time>2019-04-28T23:17:21Z</time>
      </trkpt>
      <trkpt lat="41.388562" lon="0.726192">
        <ele>498.137</ele>
        <time>2019-04-28T23:17:41Z</time>
      </trkpt>
      <trkpt lat="41.388312" lon="0.726460">
        <ele>496.949</ele>
        <time>2019-04-28T23:18:01Z</time>
      </trkpt>
      <trkpt lat="41.387692" lon="0.726793">
        <ele>492.013</ele>
        <time>2019-04-28T23:18:21Z</time>
      </trkpt>
      <trkpt lat="41.387217" lon="0.727276">
        <ele>490.608</ele>
        <time>2019-04-28T23:18:41Z</time>
      </trkpt>
      <trkpt lat="41.386767" lon="0.727437">
        <ele>492.246</ele>
        <time>2019-04-28T23:19:01Z</time>
      </trkpt>
      <trkpt lat="41.386195" lon="0.727576">
        <ele>492.518</ele>
        <time>2019-04-28T23:19:21Z</time>
      </trkpt>
      <trkpt lat="41.385712" lon="0.727737">
        <ele>495.521</ele>
        <time>2019-04-28T23:19:41Z</time>
      </trkpt>
      <trkpt lat="41.385076" lon="0.727812">
        <ele>499.014</ele>
        <time>2019-04-28T23:20:01Z</time>
      </trkpt>
      <trkpt lat="41.384577" lon="0.728048">
        <ele>499.460</ele>
        <time>2019-04-28T23:20:21Z</time>
      </trkpt>
      <trkpt lat="41.384424" lon="0.728477">
        <ele>499.411</ele>
        <time>2019-04-28T23:20:41Z</time>
      </trkpt>
      <trkpt lat="41.384327" lon="0.729057">
        <ele>500.550</ele>
        <time>2019-04-28T23:21:01Z</time>
      </trkpt>
      <trkpt lat="41.383724" lon="0.730215">
        <ele>495.889</ele>
        <time>2019-04-28T23:21:21Z</time>
      </trkpt>
      <trkpt lat="41.383820" lon="0.730537">
        <ele>493.946</ele>
        <time>2019-04-28T23:21:41Z</time>
      </trkpt>
      <trkpt lat="41.383700" lon="0.730859">
        <ele>491.588</ele>
        <time>2019-04-28T23:22:01Z</time>
      </trkpt>
      <trkpt lat="41.383579" lon="0.731385">
        <ele>489.516</ele>
        <time>2019-04-28T23:22:21Z</time>
      </trkpt>
      <trkpt lat="41.383378" lon="0.731782">
        <ele>488.008</ele>
        <time>2019-04-28T23:22:41Z</time>
      </trkpt>
      <trkpt lat="41.383386" lon="0.732393">
        <ele>488.977</ele>
        <time>2019-04-28T23:23:01Z</time>
      </trkpt>
      <trkpt lat="41.383241" lon="0.732983">
        <ele>484.529</ele>
        <time>2019-04-28T23:23:21Z</time>
      </trkpt>
      <trkpt lat="41.383015" lon="0.733466">
        <ele>482.842</ele>
        <time>2019-04-28T23:23:41Z</time>
      </trkpt>
      <trkpt lat="41.382693" lon="0.734335">
        <ele>485.485</ele>
        <time>2019-04-28T23:24:01Z</time>
      </trkpt>
      <trkpt lat="41.382573" lon="0.734636">
        <ele>484.691</ele>
        <time>2019-04-28T23:24:21Z</time>
      </trkpt>
      <trkpt lat="41.381752" lon="0.733809">
        <ele>471.342</ele>
        <time>2019-04-28T23:24:41Z</time>
      </trkpt>
      <trkpt lat="41.381510" lon="0.733842">
        <ele>468.041</ele>
        <time>2019-04-28T23:25:01Z</time>
      </trkpt>
      <trkpt lat="41.381325" lon="0.733606">
        <ele>463.690</ele>
        <time>2019-04-28T23:25:21Z</time>
      </trkpt>
      <trkpt lat="41.381132" lon="0.733767">
        <ele>460.038</ele>
        <time>2019-04-28T23:25:41Z</time>
      </trkpt>
      <trkpt lat="41.380979" lon="0.734003">
        <ele>457.670</ele>
        <time>2019-04-28T23:26:01Z</time>
      </trkpt>
      <trkpt lat="41.380721" lon="0.734110">
        <ele>452.417</ele>
        <time>2019-04-28T23:26:21Z</time>
      </trkpt>
      <trkpt lat="41.380697" lon="0.734421">
        <ele>453.908</ele>
        <time>2019-04-28T23:26:41Z</time>
      </trkpt>
      <trkpt lat="41.380616" lon="0.734357">
        <ele>451.756</ele>
        <time>2019-04-28T23:27:01Z</time>
      </trkpt>
      <trkpt lat="41.380600" lon="0.734164">
        <ele>449.998</ele>
        <time>2019-04-28T23:27:21Z</time>
      </trkpt>
      <trkpt lat="41.380616" lon="0.733745">
        <ele>450.781</ele>
        <time>2019-04-28T23:27:41Z</time>
      </trkpt>
      <trkpt lat="41.380802" lon="0.733091">
        <ele>455.034</ele>
        <time>2019-04-28T23:28:01Z</time>
      </trkpt>
      <trkpt lat="41.380890" lon="0.732275">
        <ele>448.770</ele>
        <time>2019-04-28T23:28:21Z</time>
      </trkpt>
      <trkpt lat="41.380826" lon="0.731932">
        <ele>448.071</ele>
        <time>2019-04-28T23:28:41Z</time>
      </trkpt>
      <trkpt lat="41.380810" lon="0.731084">
        <ele>455.590</ele>
        <time>2019-04-28T23:29:01Z</time>
      </trkpt>
      <trkpt lat="41.380721" lon="0.730237">
        <ele>452.899</ele>
        <time>2019-04-28T23:29:21Z</time>
      </trkpt>
      <trkpt lat="41.380971" lon="0.729915">
        <ele>454.829</ele>
        <time>2019-04-28T23:29:41Z</time>
      </trkpt>
      <trkpt lat="41.380963" lon="0.729496">
        <ele>449.800</ele>
        <time>2019-04-28T23:30:01Z</time>
      </trkpt>
      <trkpt lat="41.381132" lon="0.729196">
        <ele>450.720</ele>
        <time>2019-04-28T23:30:21Z</time>
      </trkpt>
      <trkpt lat="41.381156" lon="0.728638">
        <ele>446.508</ele>
        <time>2019-04-28T23:30:41Z</time>
      </trkpt>
      <trkpt lat="41.381212" lon="0.727297">
        <ele>443.645</ele>
        <time>2019-04-28T23:31:01Z</time>
      </trkpt>
      <trkpt lat="41.381438" lon="0.726492">
        <ele>441.627</ele>
        <time>2019-04-28T23:31:21Z</time>
      </trkpt>
      <trkpt lat="41.381719" lon="0.726106">
        <ele>442.770</ele>
        <time>2019-04-28T23:31:41Z</time>
      </trkpt>
      <trkpt lat="41.382090" lon="0.725666">
        <ele>441.663</ele>
        <time>2019-04-28T23:32:01Z</time>
      </trkpt>
      <trkpt lat="41.382508" lon="0.725259">
        <ele>443.869</ele>
        <time>2019-04-28T23:32:21Z</time>
      </trkpt>
      <trkpt lat="41.382734" lon="0.724776">
        <ele>438.940</ele>
        <time>2019-04-28T23:32:41Z</time>
      </trkpt>
      <trkpt lat="41.383112" lon="0.724261">
        <ele>438.419</ele>
        <time>2019-04-28T23:33:01Z</time>
      </trkpt>
      <trkpt lat="41.383370" lon="0.723917">
        <ele>437.748</ele>
        <time>2019-04-28T23:33:21Z</time>
      </trkpt>
      <trkpt lat="41.383853" lon="0.723392">
        <ele>436.374</ele>
        <time>2019-04-28T23:33:41Z</time>
      </trkpt>
      <trkpt lat="41.384102" lon="0.723242">
        <ele>438.156</ele>
        <time>2019-04-28T23:34:01Z</time>
      </trkpt>
      <trkpt lat="41.384593" lon="0.722340">
        <ele>438.221</ele>
        <time>2019-04-28T23:34:21Z</time>
      </trkpt>
      <trkpt lat="41.383933" lon="0.721997">
        <ele>436.308</ele>
        <time>2019-04-28T23:34:41Z</time>
      </trkpt>
      <trkpt lat="41.383619" lon="0.722222">
        <ele>438.910</ele>
        <time>2019-04-28T23:35:01Z</time>
      </trkpt>
      <trkpt lat="41.383402" lon="0.722362">
        <ele>440.692</ele>
        <time>2019-04-28T23:35:21Z</time>
      </trkpt>
      <trkpt lat="41.383048" lon="0.722297">
        <ele>445.565</ele>
        <time>2019-04-28T23:35:41Z</time>
      </trkpt>
      <trkpt lat="41.382669" lon="0.722469">
        <ele>445.578</ele>
        <time>2019-04-28T23:36:01Z</time>
      </trkpt>
      <trkpt lat="41.382508" lon="0.722415">
        <ele>447.874</ele>
        <time>2019-04-28T23:36:21Z</time>
      </trkpt>
      <trkpt lat="41.382275" lon="0.722330">
        <ele>450.325</ele>
        <time>2019-04-28T23:36:41Z</time>
      </trkpt>
      <trkpt lat="41.381904" lon="0.722051">
        <ele>455.014</ele>
        <time>2019-04-28T23:37:01Z</time>
      </trkpt>
      <trkpt lat="41.381703" lon="0.721879">
        <ele>457.153</ele>
        <time>2019-04-28T23:37:21Z</time>
      </trkpt>
      <trkpt lat="41.381421" lon="0.721879">
        <ele>456.738</ele>
        <time>2019-04-28T23:37:41Z</time>
      </trkpt>
      <trkpt lat="41.381301" lon="0.722094">
        <ele>457.070</ele>
        <time>2019-04-28T23:38:01Z</time>
      </trkpt>
      <trkpt lat="41.381059" lon="0.722308">
        <ele>459.917</ele>
        <time>2019-04-28T23:38:21Z</time>
      </trkpt>
      <trkpt lat="41.380898" lon="0.722458">
        <ele>460.608</ele>
        <time>2019-04-28T23:38:41Z</time>
      </trkpt>
      <trkpt lat="41.380488" lon="0.722362">
        <ele>463.656</ele>
        <time>2019-04-28T23:39:01Z</time>
      </trkpt>
      <trkpt lat="41.380294" lon="0.722458">
        <ele>462.268</ele>
        <time>2019-04-28T23:39:21Z</time>
      </trkpt>
      <trkpt lat="41.380238" lon="0.722716">
        <ele>461.661</ele>
        <time>2019-04-28T23:39:41Z</time>
      </trkpt>
      <trkpt lat="41.380182" lon="0.722920">
        <ele>462.034</ele>
        <time>2019-04-28T23:40:01Z</time>
      </trkpt>
      <trkpt lat="41.380351" lon="0.723102">
        <ele>461.870</ele>
        <time>2019-04-28T23:40:21Z</time>
      </trkpt>
      <trkpt lat="41.380842" lon="0.723306">
        <ele>462.811</ele>
        <time>2019-04-28T23:40:41Z</time>
      </trkpt>
      <trkpt lat="41.380938" lon="0.723499">
        <ele>463.580</ele>
        <time>2019-04-28T23:41:01Z</time>
      </trkpt>
      <trkpt lat="41.380769" lon="0.723832">
        <ele>464.719</ele>
        <time>2019-04-28T23:41:21Z</time>
      </trkpt>
      <trkpt lat="41.380568" lon="0.724057">
        <ele>467.541</ele>
        <time>2019-04-28T23:41:41Z</time>
      </trkpt>
      <trkpt lat="41.380174" lon="0.724368">
        <ele>473.281</ele>
        <time>2019-04-28T23:42:01Z</time>
      </trkpt>
      <trkpt lat="41.379884" lon="0.725398">
        <ele>471.809</ele>
        <time>2019-04-28T23:42:21Z</time>
      </trkpt>
      <trkpt lat="41.379183" lon="0.726020">
        <ele>473.108</ele>
        <time>2019-04-28T23:42:41Z</time>
      </trkpt>
      <trkpt lat="41.378958" lon="0.725935">
        <ele>478.027</ele>
        <time>2019-04-28T23:43:01Z</time>
      </trkpt>
      <trkpt lat="41.378652" lon="0.726246">
        <ele>478.069</ele>
        <time>2019-04-28T23:43:21Z</time>
      </trkpt>
      <trkpt lat="41.378684" lon="0.726439">
        <ele>478.012</ele>
        <time>2019-04-28T23:43:41Z</time>
      </trkpt>
      <trkpt lat="41.378588" lon="0.726889">
        <ele>482.245</ele>
        <time>2019-04-28T23:44:01Z</time>
      </trkpt>
      <trkpt lat="41.377791" lon="0.727630">
        <ele>500.221</ele>
        <time>2019-04-28T23:44:21Z</time>
      </trkpt>
      <trkpt lat="41.377742" lon="0.727758">
        <ele>501.712</ele>
        <time>2019-04-28T23:44:41Z</time>
      </trkpt>
      <trkpt lat="41.377388" lon="0.728724">
        <ele>508.751</ele>
        <time>2019-04-28T23:45:01Z</time>
      </trkpt>
      <trkpt lat="41.376817" lon="0.729754">
        <ele>512.370</ele>
        <time>2019-04-28T23:45:21Z</time>
      </trkpt>
      <trkpt lat="41.376664" lon="0.730151">
        <ele>511.596</ele>
        <time>2019-04-28T23:45:41Z</time>
      </trkpt>
      <trkpt lat="41.376430" lon="0.730516">
        <ele>512.131</ele>
        <time>2019-04-28T23:46:01Z</time>
      </trkpt>
      <trkpt lat="41.376068" lon="0.730044">
        <ele>520.124</ele>
        <time>2019-04-28T23:46:21Z</time>
      </trkpt>
      <trkpt lat="41.375351" lon="0.730644">
        <ele>525.508</ele>
        <time>2019-04-28T23:46:41Z</time>
      </trkpt>
      <trkpt lat="41.375086" lon="0.731277">
        <ele>524.972</ele>
        <time>2019-04-28T23:47:01Z</time>
      </trkpt>
      <trkpt lat="41.374981" lon="0.731707">
        <ele>524.374</ele>
        <time>2019-04-28T23:47:21Z</time>
      </trkpt>
      <trkpt lat="41.374860" lon="0.732275">
        <ele>523.177</ele>
        <time>2019-04-28T23:47:41Z</time>
      </trkpt>
      <trkpt lat="41.374538" lon="0.732919">
        <ele>522.330</ele>
        <time>2019-04-28T23:48:01Z</time>
      </trkpt>
      <trkpt lat="41.374409" lon="0.733198">
        <ele>524.356</ele>
        <time>2019-04-28T23:48:21Z</time>
      </trkpt>
      <trkpt lat="41.374345" lon="0.733831">
        <ele>526.337</ele>
        <time>2019-04-28T23:48:41Z</time>
      </trkpt>
      <trkpt lat="41.374152" lon="0.734121">
        <ele>527.176</ele>
        <time>2019-04-28T23:49:01Z</time>
      </trkpt>
      <trkpt lat="41.373910" lon="0.734464">
        <ele>525.795</ele>
        <time>2019-04-28T23:49:21Z</time>
      </trkpt>
      <trkpt lat="41.373492" lon="0.734357">
        <ele>527.888</ele>
        <time>2019-04-28T23:49:41Z</time>
      </trkpt>
      <trkpt lat="41.372992" lon="0.734668">
        <ele>526.224</ele>
        <time>2019-04-28T23:50:01Z</time>
      </trkpt>
      <trkpt lat="41.372928" lon="0.735011">
        <ele>523.726</ele>
        <time>2019-04-28T23:50:21Z</time>
      </trkpt>
      <trkpt lat="41.372711" lon="0.735236">
        <ele>526.508</ele>
        <time>2019-04-28T23:50:41Z</time>
      </trkpt>
      <trkpt lat="41.372453" lon="0.735837">
        <ele>529.031</ele>
        <time>2019-04-28T23:51:01Z</time>
      </trkpt>
      <trkpt lat="41.372453" lon="0.736406">
        <ele>527.343</ele>
        <time>2019-04-28T23:51:21Z</time>
      </trkpt>
      <trkpt lat="41.372332" lon="0.737028">
        <ele>527.256</ele>
        <time>2019-04-28T23:51:41Z</time>
      </trkpt>
      <trkpt lat="41.372252" lon="0.737189">
        <ele>527.839</ele>
        <time>2019-04-28T23:52:01Z</time>
      </trkpt>
      <trkpt lat="41.371471" lon="0.736899">
        <ele>542.425</ele>
        <time>2019-04-28T23:52:21Z</time>
      </trkpt>
      <trkpt lat="41.371213" lon="0.736481">
        <ele>550.216</ele>
        <time>2019-04-28T23:52:41Z</time>
      </trkpt>
      <trkpt lat="41.371100" lon="0.736181">
        <ele>554.255</ele>
        <time>2019-04-28T23:53:01Z</time>
      </trkpt>
      <trkpt lat="41.371004" lon="0.735537">
        <ele>561.844</ele>
        <time>2019-04-28T23:53:21Z</time>
      </trkpt>
      <trkpt lat="41.370617" lon="0.735548">
        <ele>565.436</ele>
        <time>2019-04-28T23:53:41Z</time>
      </trkpt>
      <trkpt lat="41.370134" lon="0.736073">
        <ele>561.417</ele>
        <time>2019-04-28T23:54:01Z</time>
      </trkpt>
      <trkpt lat="41.369917" lon="0.736524">
        <ele>561.618</ele>
        <time>2019-04-28T23:54:21Z</time>
      </trkpt>
      <trkpt lat="41.369611" lon="0.737114">
        <ele>561.708</ele>
        <time>2019-04-28T23:54:41Z</time>
      </trkpt>
      <trkpt lat="41.369305" lon="0.737157">
        <ele>566.366</ele>
        <time>2019-04-28T23:55:01Z</time>
      </trkpt>
      <trkpt lat="41.368902" lon="0.737318">
        <ele>571.098</ele>
        <time>2019-04-28T23:55:21Z</time>
      </trkpt>
      <trkpt lat="41.368347" lon="0.737082">
        <ele>579.141</ele>
        <time>2019-04-28T23:55:41Z</time>
      </trkpt>
      <trkpt lat="41.367896" lon="0.737200">
        <ele>577.514</ele>
        <time>2019-04-28T23:56:01Z</time>
      </trkpt>
      <trkpt lat="41.367550" lon="0.737168">
        <ele>580.710</ele>
        <time>2019-04-28T23:56:21Z</time>
      </trkpt>
      <trkpt lat="41.367083" lon="0.736942">
        <ele>583.541</ele>
        <time>2019-04-28T23:56:41Z</time>
      </trkpt>
      <trkpt lat="41.366938" lon="0.736835">
        <ele>583.410</ele>
        <time>2019-04-28T23:57:01Z</time>
      </trkpt>
    </trkseg>
  </trk>
</gpx>
